SJX031 KSEA-RCTP
Flight info
| Callsign | SJX031 |
|---|---|
| Flight time | 12h 18m |
| Altitude | 34000 |
| Route | BANGR9 PANGL DCT TOU DCT SEFIX DCT NUDGE DCT 53N140W 56N150W DCT PDN DCT 57N160W 57N170W DCT ONEIL/N0495F360 DCT NIKLL R220 NOGAL/N0493F370 R220 NUBDA/N0490F380 R220 NANNO OTR1 OBE DCT MKE DCT HWE Y12 TAPPI Z16 GNITS Z162 KAMSA L512 TENAS Y579 PSN Y572 CJU Z82 PANSI Y711 MUGUS Y742 SALMI B576 BAKER BAKER1A |
| Aircraft | A359/H-SDE2E3GHIJ3J4J5LM1ORWXY/LB1D1 |
Departure
| Time | 2026-05-05 06:59 |
|---|---|
| Airport | Seattle–Tacoma International Airport (KSEA) |
Arrival
| Time | 2026-05-05 19:17 |
|---|---|
| Airport | Taiwan Taoyuan International Airport (RCTP) |
| Time | Latitude | Longitude | Altitude | Speed | Heading |
|---|---|---|---|---|---|
| 2026-05-05 06:04 | 47.43901 | -122.30427 | 391 ft | 0 kts | 119° |
| 2026-05-05 06:46 | 47.43906 | -122.30441 | 391 ft | 4 kts | 114° |
| 2026-05-05 06:46 | 47.43914 | -122.30478 | 391 ft | 4 kts | 91° |
| 2026-05-05 06:46 | 47.43910 | -122.30516 | 390 ft | 4 kts | 58° |
| 2026-05-05 06:47 | 47.43892 | -122.30541 | 390 ft | 4 kts | 15° |
| 2026-05-05 06:47 | 47.43883 | -122.30544 | 389 ft | 1 kts | 0° |
| 2026-05-05 06:51 | 47.43936 | -122.30544 | 390 ft | 15 kts | 0° |
| 2026-05-05 06:51 | 47.44020 | -122.30623 | 390 ft | 14 kts | 331° |
| 2026-05-05 06:52 | 47.44108 | -122.30635 | 392 ft | 12 kts | 360° |
| 2026-05-05 06:52 | 47.44184 | -122.30635 | 392 ft | 10 kts | 0° |
| 2026-05-05 06:52 | 47.44253 | -122.30634 | 393 ft | 11 kts | 0° |
| 2026-05-05 06:52 | 47.44340 | -122.30633 | 396 ft | 14 kts | 0° |
| 2026-05-05 06:53 | 47.44448 | -122.30633 | 400 ft | 17 kts | 0° |
| 2026-05-05 06:53 | 47.44577 | -122.30631 | 405 ft | 20 kts | 0° |
| 2026-05-05 06:53 | 47.44715 | -122.30630 | 406 ft | 19 kts | 0° |
| 2026-05-05 06:53 | 47.44840 | -122.30629 | 409 ft | 17 kts | 0° |
| 2026-05-05 06:54 | 47.44948 | -122.30628 | 411 ft | 14 kts | 0° |
| 2026-05-05 06:54 | 47.45037 | -122.30627 | 411 ft | 13 kts | 0° |
| 2026-05-05 06:54 | 47.45141 | -122.30626 | 415 ft | 16 kts | 0° |
| 2026-05-05 06:54 | 47.45260 | -122.30625 | 417 ft | 18 kts | 0° |
| 2026-05-05 06:55 | 47.45387 | -122.30624 | 426 ft | 18 kts | 0° |
| 2026-05-05 06:55 | 47.45520 | -122.30623 | 428 ft | 20 kts | 0° |
| 2026-05-05 06:55 | 47.45661 | -122.30621 | 435 ft | 20 kts | 0° |
| 2026-05-05 06:55 | 47.45798 | -122.30620 | 427 ft | 19 kts | 0° |
| 2026-05-05 06:56 | 47.45928 | -122.30619 | 432 ft | 18 kts | 0° |
| 2026-05-05 06:56 | 47.46045 | -122.30618 | 447 ft | 16 kts | 0° |
| 2026-05-05 06:56 | 47.46159 | -122.30617 | 447 ft | 16 kts | 0° |
| 2026-05-05 06:56 | 47.46271 | -122.30616 | 447 ft | 16 kts | 0° |
| 2026-05-05 06:57 | 47.46363 | -122.30643 | 449 ft | 12 kts | 316° |
| 2026-05-05 06:57 | 47.46356 | -122.30743 | 448 ft | 10 kts | 229° |
| 2026-05-05 06:57 | 47.46290 | -122.30777 | 447 ft | 11 kts | 184° |
| 2026-05-05 06:57 | 47.46192 | -122.30778 | 438 ft | 26 kts | 180° |
| 2026-05-05 06:58 | 47.45833 | -122.30782 | 431 ft | 76 kts | 180° |
| 2026-05-05 06:58 | 47.45150 | -122.30788 | 418 ft | 119 kts | 180° |
| 2026-05-05 06:58 | 47.44184 | -122.30796 | 400 ft | 157 kts | 180° |
| 2026-05-05 06:58 | 47.43117 | -122.30782 | 824 ft | 149 kts | 180° |
| 2026-05-05 06:59 | 47.42042 | -122.30744 | 1025 ft | 159 kts | 178° |
| 2026-05-05 06:59 | 47.40931 | -122.30727 | 1430 ft | 159 kts | 182° |
| 2026-05-05 06:59 | 47.39812 | -122.30786 | 1737 ft | 165 kts | 184° |
| 2026-05-05 06:59 | 47.38627 | -122.30885 | 1910 ft | 177 kts | 183° |
| 2026-05-05 07:00 | 47.37353 | -122.30947 | 2097 ft | 190 kts | 182° |
| 2026-05-05 07:00 | 47.35983 | -122.31000 | 2265 ft | 204 kts | 182° |
| 2026-05-05 07:00 | 47.34498 | -122.31068 | 2427 ft | 220 kts | 183° |
| 2026-05-05 07:00 | 47.32972 | -122.31627 | 2582 ft | 236 kts | 209° |
| 2026-05-05 07:01 | 47.31832 | -122.33428 | 2788 ft | 252 kts | 245° |
| 2026-05-05 07:01 | 47.31401 | -122.35963 | 3179 ft | 259 kts | 261° |
| 2026-05-05 07:01 | 47.31145 | -122.38618 | 3568 ft | 264 kts | 262° |
| 2026-05-05 07:01 | 47.30894 | -122.41323 | 3994 ft | 268 kts | 264° |
| 2026-05-05 07:02 | 47.30945 | -122.44061 | 4430 ft | 268 kts | 286° |
| 2026-05-05 07:02 | 47.31646 | -122.46583 | 4900 ft | 267 kts | 300° |
| 2026-05-05 07:02 | 47.32528 | -122.49000 | 5380 ft | 268 kts | 301° |
| 2026-05-05 07:02 | 47.33489 | -122.51361 | 5839 ft | 269 kts | 309° |
| 2026-05-05 07:03 | 47.34783 | -122.53338 | 6333 ft | 269 kts | 320° |
| 2026-05-05 07:03 | 47.36199 | -122.55150 | 6787 ft | 271 kts | 321° |
| 2026-05-05 07:03 | 47.37642 | -122.56971 | 7251 ft | 275 kts | 321° |
| 2026-05-05 07:03 | 47.39101 | -122.58823 | 7707 ft | 278 kts | 321° |
| 2026-05-05 07:04 | 47.40571 | -122.60698 | 8214 ft | 281 kts | 321° |
| 2026-05-05 07:04 | 47.42054 | -122.62597 | 8671 ft | 285 kts | 321° |
| 2026-05-05 07:04 | 47.43563 | -122.64532 | 9147 ft | 288 kts | 321° |
| 2026-05-05 07:04 | 47.45082 | -122.66484 | 9661 ft | 291 kts | 321° |
| 2026-05-05 07:05 | 47.46611 | -122.68454 | 10124 ft | 294 kts | 321° |
| 2026-05-05 07:05 | 47.48182 | -122.70478 | 10373 ft | 305 kts | 321° |
| 2026-05-05 07:05 | 47.49815 | -122.72583 | 10583 ft | 318 kts | 321° |
| 2026-05-05 07:05 | 47.51511 | -122.74773 | 10807 ft | 329 kts | 321° |
| 2026-05-05 07:06 | 47.53267 | -122.77042 | 11032 ft | 341 kts | 321° |
| 2026-05-05 07:06 | 47.55056 | -122.79358 | 11236 ft | 352 kts | 321° |
| 2026-05-05 07:06 | 47.56928 | -122.81781 | 11435 ft | 363 kts | 321° |
| 2026-05-05 07:06 | 47.58850 | -122.84274 | 11655 ft | 372 kts | 321° |
| 2026-05-05 07:07 | 47.60808 | -122.86816 | 12045 ft | 376 kts | 321° |
| 2026-05-05 07:07 | 47.62773 | -122.89369 | 12513 ft | 377 kts | 321° |
| 2026-05-05 07:07 | 47.64746 | -122.91938 | 12975 ft | 378 kts | 321° |
| 2026-05-05 07:07 | 47.66658 | -122.94628 | 13420 ft | 380 kts | 317° |
| 2026-05-05 07:08 | 47.68519 | -122.97426 | 13798 ft | 381 kts | 317° |
| 2026-05-05 07:08 | 47.70385 | -123.00234 | 14169 ft | 383 kts | 317° |
| 2026-05-05 07:08 | 47.72263 | -123.03038 | 14528 ft | 386 kts | 317° |
| 2026-05-05 07:08 | 47.74165 | -123.05866 | 14929 ft | 387 kts | 317° |
| 2026-05-05 07:09 | 47.76082 | -123.08709 | 15275 ft | 390 kts | 318° |
| 2026-05-05 07:09 | 47.78007 | -123.11564 | 15668 ft | 391 kts | 318° |
| 2026-05-05 07:09 | 47.79937 | -123.14426 | 16084 ft | 392 kts | 318° |
| 2026-05-05 07:09 | 47.81870 | -123.17299 | 16490 ft | 394 kts | 318° |
| 2026-05-05 07:10 | 47.83808 | -123.20173 | 16816 ft | 397 kts | 318° |
| 2026-05-05 07:10 | 47.85766 | -123.23080 | 17204 ft | 398 kts | 318° |
| 2026-05-05 07:10 | 47.87720 | -123.25998 | 17603 ft | 400 kts | 318° |
| 2026-05-05 07:10 | 47.89700 | -123.28948 | 18004 ft | 402 kts | 318° |
| 2026-05-05 07:11 | 47.91681 | -123.31900 | 18322 ft | 405 kts | 318° |
| 2026-05-05 07:11 | 47.93675 | -123.34880 | 18684 ft | 405 kts | 318° |
| 2026-05-05 07:11 | 47.95672 | -123.37867 | 19019 ft | 408 kts | 318° |
| 2026-05-05 07:11 | 47.97679 | -123.40872 | 19364 ft | 410 kts | 318° |
| 2026-05-05 07:12 | 47.99692 | -123.43890 | 19669 ft | 412 kts | 318° |
| 2026-05-05 07:12 | 48.01710 | -123.46922 | 20013 ft | 414 kts | 318° |
| 2026-05-05 07:12 | 48.03749 | -123.49986 | 20359 ft | 415 kts | 318° |
| 2026-05-05 07:12 | 48.05786 | -123.53052 | 20713 ft | 417 kts | 318° |
| 2026-05-05 07:13 | 48.07839 | -123.56145 | 21021 ft | 420 kts | 318° |
| 2026-05-05 07:13 | 48.09899 | -123.59253 | 21377 ft | 421 kts | 318° |
| 2026-05-05 07:13 | 48.11964 | -123.62380 | 21717 ft | 424 kts | 317° |
| 2026-05-05 07:13 | 48.13870 | -123.65776 | 22033 ft | 430 kts | 308° |
| 2026-05-05 07:14 | 48.15305 | -123.69728 | 22393 ft | 437 kts | 295° |
| 2026-05-05 07:14 | 48.16264 | -123.74015 | 22687 ft | 443 kts | 290° |
| 2026-05-05 07:14 | 48.17059 | -123.78492 | 23002 ft | 446 kts | 287° |
| 2026-05-05 07:14 | 48.17765 | -123.83029 | 23350 ft | 449 kts | 286° |
| 2026-05-05 07:15 | 48.18443 | -123.87608 | 23649 ft | 451 kts | 286° |
| 2026-05-05 07:15 | 48.19123 | -123.92210 | 23973 ft | 453 kts | 286° |
| 2026-05-05 07:15 | 48.19817 | -123.96817 | 24284 ft | 454 kts | 287° |
| 2026-05-05 07:15 | 48.20525 | -124.01434 | 24597 ft | 455 kts | 287° |
| 2026-05-05 07:16 | 48.21246 | -124.06073 | 24856 ft | 458 kts | 287° |
| 2026-05-05 07:16 | 48.21974 | -124.10723 | 25173 ft | 459 kts | 287° |
| 2026-05-05 07:16 | 48.22706 | -124.15389 | 25514 ft | 460 kts | 287° |
| 2026-05-05 07:16 | 48.23438 | -124.20063 | 25816 ft | 462 kts | 287° |
| 2026-05-05 07:17 | 48.24171 | -124.24761 | 26118 ft | 463 kts | 287° |
| 2026-05-05 07:17 | 48.24904 | -124.29474 | 26396 ft | 465 kts | 287° |
| 2026-05-05 07:17 | 48.25635 | -124.34196 | 26692 ft | 466 kts | 287° |
| 2026-05-05 07:17 | 48.26369 | -124.38953 | 26972 ft | 468 kts | 287° |
| 2026-05-05 07:18 | 48.27102 | -124.43716 | 27268 ft | 469 kts | 287° |
| 2026-05-05 07:18 | 48.27835 | -124.48495 | 27561 ft | 470 kts | 287° |
| 2026-05-05 07:18 | 48.28567 | -124.53282 | 27839 ft | 472 kts | 286° |
| 2026-05-05 07:18 | 48.29301 | -124.58095 | 28096 ft | 473 kts | 286° |
| 2026-05-05 07:19 | 48.30120 | -124.62873 | 28364 ft | 472 kts | 290° |
| 2026-05-05 07:19 | 48.31104 | -124.67586 | 28654 ft | 472 kts | 291° |
| 2026-05-05 07:19 | 48.32124 | -124.72291 | 28805 ft | 476 kts | 291° |
| 2026-05-05 07:19 | 48.33167 | -124.77011 | 29053 ft | 477 kts | 291° |
| 2026-05-05 07:20 | 48.34221 | -124.81744 | 29302 ft | 478 kts | 291° |
| 2026-05-05 07:20 | 48.35277 | -124.86485 | 29538 ft | 479 kts | 291° |
| 2026-05-05 07:20 | 48.36334 | -124.91244 | 29759 ft | 480 kts | 291° |
| 2026-05-05 07:20 | 48.37388 | -124.96007 | 29959 ft | 481 kts | 291° |
| 2026-05-05 07:21 | 48.38444 | -125.00799 | 30154 ft | 483 kts | 291° |
| 2026-05-05 07:21 | 48.39498 | -125.05603 | 30307 ft | 484 kts | 291° |
| 2026-05-05 07:21 | 48.40551 | -125.10413 | 30520 ft | 484 kts | 291° |
| 2026-05-05 07:21 | 48.41600 | -125.15220 | 30786 ft | 483 kts | 291° |
| 2026-05-05 07:22 | 48.42632 | -125.19962 | 30975 ft | 483 kts | 291° |
| 2026-05-05 07:22 | 48.43688 | -125.24825 | 31189 ft | 483 kts | 291° |
| 2026-05-05 07:22 | 48.44715 | -125.29565 | 31394 ft | 482 kts | 291° |
| 2026-05-05 07:22 | 48.45752 | -125.34363 | 31592 ft | 482 kts | 291° |
| 2026-05-05 07:23 | 48.46788 | -125.39160 | 31805 ft | 482 kts | 291° |
| 2026-05-05 07:23 | 48.47822 | -125.43964 | 31972 ft | 481 kts | 290° |
| 2026-05-05 07:23 | 48.48855 | -125.48773 | 32063 ft | 483 kts | 290° |
| 2026-05-05 07:23 | 48.49888 | -125.53590 | 32233 ft | 483 kts | 290° |
| 2026-05-05 07:24 | 48.50916 | -125.58399 | 32465 ft | 481 kts | 290° |
| 2026-05-05 07:24 | 48.51940 | -125.63202 | 32630 ft | 481 kts | 290° |
| 2026-05-05 07:24 | 48.52962 | -125.68007 | 32792 ft | 481 kts | 290° |
| 2026-05-05 07:24 | 48.53982 | -125.72814 | 32954 ft | 481 kts | 290° |
| 2026-05-05 07:25 | 48.54999 | -125.77618 | 33111 ft | 481 kts | 290° |
| 2026-05-05 07:25 | 48.56013 | -125.82419 | 33270 ft | 480 kts | 290° |
| 2026-05-05 07:25 | 48.57026 | -125.87222 | 33413 ft | 480 kts | 290° |
| 2026-05-05 07:25 | 48.58035 | -125.92024 | 33551 ft | 480 kts | 290° |
| 2026-05-05 07:26 | 48.59044 | -125.96832 | 33701 ft | 480 kts | 290° |
| 2026-05-05 07:26 | 48.60049 | -126.01635 | 33834 ft | 479 kts | 290° |
| 2026-05-05 07:26 | 48.61051 | -126.06437 | 33972 ft | 479 kts | 290° |
| 2026-05-05 07:27 | 48.63057 | -126.16073 | 33983 ft | 484 kts | 290° |
| 2026-05-05 07:27 | 48.65072 | -126.25804 | 33976 ft | 486 kts | 290° |
| 2026-05-05 07:28 | 48.67081 | -126.35562 | 33977 ft | 486 kts | 290° |
| 2026-05-05 07:28 | 48.69082 | -126.45326 | 33977 ft | 486 kts | 290° |
| 2026-05-05 07:29 | 48.71076 | -126.55098 | 33980 ft | 486 kts | 289° |
| 2026-05-05 07:29 | 48.73064 | -126.64894 | 33980 ft | 486 kts | 289° |
| 2026-05-05 07:30 | 48.75515 | -126.74380 | 33980 ft | 483 kts | 298° |
| 2026-05-05 07:30 | 48.80069 | -126.88007 | 33975 ft | 482 kts | 300° |
| 2026-05-05 07:31 | 48.83152 | -126.97035 | 33976 ft | 481 kts | 299° |
| 2026-05-05 07:31 | 48.86216 | -127.06073 | 33976 ft | 481 kts | 299° |
| 2026-05-05 07:32 | 48.89263 | -127.15122 | 33974 ft | 481 kts | 299° |
| 2026-05-05 07:32 | 48.92301 | -127.24185 | 33974 ft | 481 kts | 299° |
| 2026-05-05 07:33 | 48.94823 | -127.31733 | 33970 ft | 481 kts | 298° |
| 2026-05-05 07:33 | 48.97841 | -127.40794 | 33969 ft | 481 kts | 298° |
| 2026-05-05 07:34 | 49.00855 | -127.49878 | 33964 ft | 481 kts | 298° |
| 2026-05-05 07:34 | 49.04352 | -127.60455 | 33966 ft | 481 kts | 298° |
| 2026-05-05 07:35 | 49.06863 | -127.68076 | 33967 ft | 481 kts | 298° |
| 2026-05-05 07:35 | 49.09845 | -127.77202 | 33972 ft | 480 kts | 298° |
| 2026-05-05 07:36 | 49.12832 | -127.86322 | 33970 ft | 480 kts | 298° |
| 2026-05-05 07:36 | 49.15812 | -127.95439 | 33971 ft | 480 kts | 298° |
| 2026-05-05 07:37 | 49.18782 | -128.04575 | 33965 ft | 480 kts | 297° |
| 2026-05-05 07:37 | 49.21740 | -128.13711 | 33968 ft | 479 kts | 297° |
| 2026-05-05 07:38 | 49.24665 | -128.22784 | 33969 ft | 479 kts | 297° |
| 2026-05-05 07:38 | 49.27619 | -128.31982 | 33962 ft | 481 kts | 297° |
| 2026-05-05 07:39 | 49.30569 | -128.41197 | 33966 ft | 482 kts | 297° |
| 2026-05-05 07:39 | 49.33509 | -128.50417 | 33965 ft | 482 kts | 296° |
| 2026-05-05 07:40 | 49.36438 | -128.59635 | 33967 ft | 482 kts | 296° |
| 2026-05-05 07:40 | 49.39368 | -128.68891 | 33969 ft | 482 kts | 296° |
| 2026-05-05 07:41 | 49.42287 | -128.78145 | 33966 ft | 482 kts | 296° |
| 2026-05-05 07:41 | 49.45199 | -128.87411 | 33965 ft | 482 kts | 296° |
| 2026-05-05 07:42 | 49.48109 | -128.96709 | 33966 ft | 481 kts | 296° |
| 2026-05-05 07:42 | 49.51001 | -129.05983 | 33964 ft | 481 kts | 296° |
| 2026-05-05 07:43 | 49.53888 | -129.15275 | 33967 ft | 481 kts | 296° |
| 2026-05-05 07:43 | 49.56766 | -129.24572 | 33973 ft | 481 kts | 295° |
| 2026-05-05 07:44 | 49.59636 | -129.33877 | 33969 ft | 480 kts | 295° |
| 2026-05-05 07:44 | 49.62492 | -129.43175 | 33961 ft | 480 kts | 295° |
| 2026-05-05 07:45 | 49.65348 | -129.52506 | 33973 ft | 482 kts | 295° |
| 2026-05-05 07:45 | 49.68181 | -129.61798 | 33975 ft | 482 kts | 295° |
| 2026-05-05 07:46 | 49.71024 | -129.71158 | 33978 ft | 481 kts | 295° |
| 2026-05-05 07:46 | 49.73858 | -129.80526 | 33980 ft | 481 kts | 294° |
| 2026-05-05 07:47 | 49.76679 | -129.89886 | 33979 ft | 481 kts | 294° |
| 2026-05-05 07:47 | 49.79498 | -129.99275 | 33979 ft | 481 kts | 294° |
| 2026-05-05 07:48 | 49.82314 | -130.08688 | 33982 ft | 481 kts | 294° |
| 2026-05-05 07:48 | 49.85113 | -130.18083 | 33988 ft | 480 kts | 294° |
| 2026-05-05 07:49 | 49.87902 | -130.27481 | 33987 ft | 480 kts | 294° |
| 2026-05-05 07:49 | 49.90685 | -130.36892 | 33988 ft | 480 kts | 294° |
| 2026-05-05 07:50 | 49.93460 | -130.46316 | 34001 ft | 480 kts | 293° |
| 2026-05-05 07:50 | 49.96228 | -130.55752 | 33991 ft | 479 kts | 293° |
| 2026-05-05 07:51 | 49.98982 | -130.65176 | 33991 ft | 480 kts | 293° |
| 2026-05-05 07:51 | 50.01734 | -130.74633 | 33993 ft | 481 kts | 293° |
| 2026-05-05 07:52 | 50.04481 | -130.84109 | 33996 ft | 481 kts | 293° |
| 2026-05-05 07:52 | 50.07226 | -130.93615 | 33996 ft | 480 kts | 292° |
| 2026-05-05 07:53 | 50.09954 | -131.03098 | 33998 ft | 480 kts | 292° |
| 2026-05-05 07:53 | 50.12666 | -131.12568 | 34002 ft | 480 kts | 292° |
| 2026-05-05 07:54 | 50.15381 | -131.22084 | 34002 ft | 480 kts | 292° |
| 2026-05-05 07:54 | 50.18085 | -131.31595 | 34005 ft | 479 kts | 292° |
| 2026-05-05 07:55 | 50.20777 | -131.41107 | 34004 ft | 479 kts | 292° |
| 2026-05-05 07:55 | 50.23445 | -131.50571 | 34003 ft | 479 kts | 292° |
| 2026-05-05 07:56 | 50.26139 | -131.60165 | 34006 ft | 479 kts | 292° |
| 2026-05-05 07:56 | 50.28792 | -131.69653 | 34015 ft | 479 kts | 291° |
| 2026-05-05 07:57 | 50.31453 | -131.79202 | 34013 ft | 479 kts | 291° |
| 2026-05-05 07:57 | 50.34106 | -131.88766 | 34009 ft | 479 kts | 291° |
| 2026-05-05 07:58 | 50.36757 | -131.98362 | 34011 ft | 480 kts | 291° |
| 2026-05-05 07:58 | 50.39400 | -132.07970 | 34018 ft | 480 kts | 291° |
| 2026-05-05 07:59 | 50.42037 | -132.17594 | 34028 ft | 480 kts | 290° |
| 2026-05-05 07:59 | 50.44667 | -132.27230 | 34025 ft | 480 kts | 290° |
| 2026-05-05 08:00 | 50.47288 | -132.36876 | 34018 ft | 481 kts | 290° |
| 2026-05-05 08:00 | 50.49901 | -132.46532 | 34021 ft | 480 kts | 290° |
| 2026-05-05 08:01 | 50.52506 | -132.56197 | 34019 ft | 480 kts | 290° |
| 2026-05-05 08:01 | 50.55102 | -132.65872 | 34032 ft | 480 kts | 290° |
| 2026-05-05 08:02 | 50.57691 | -132.75561 | 34033 ft | 480 kts | 290° |
| 2026-05-05 08:02 | 50.60272 | -132.85258 | 34028 ft | 480 kts | 290° |
| 2026-05-05 08:03 | 50.62844 | -132.94962 | 34036 ft | 480 kts | 290° |
| 2026-05-05 08:03 | 50.65410 | -133.04686 | 34027 ft | 480 kts | 290° |
| 2026-05-05 08:04 | 50.67966 | -133.14414 | 34040 ft | 481 kts | 289° |
| 2026-05-05 08:04 | 50.70520 | -133.24173 | 34043 ft | 482 kts | 289° |
| 2026-05-05 08:05 | 50.73067 | -133.33951 | 34045 ft | 482 kts | 289° |
| 2026-05-05 08:05 | 50.75606 | -133.43738 | 34056 ft | 482 kts | 289° |
| 2026-05-05 08:06 | 50.78137 | -133.53538 | 34053 ft | 482 kts | 289° |
| 2026-05-05 08:06 | 50.80647 | -133.63300 | 34052 ft | 482 kts | 289° |
| 2026-05-05 08:07 | 50.83164 | -133.73127 | 34064 ft | 482 kts | 289° |
| 2026-05-05 08:07 | 50.85673 | -133.82970 | 34064 ft | 482 kts | 289° |
| 2026-05-05 08:08 | 50.88174 | -133.92821 | 34062 ft | 483 kts | 288° |
| 2026-05-05 08:08 | 50.90671 | -134.02702 | 34061 ft | 483 kts | 288° |
| 2026-05-05 08:09 | 50.93160 | -134.12592 | 34070 ft | 483 kts | 288° |
| 2026-05-05 08:09 | 50.95640 | -134.22495 | 34078 ft | 483 kts | 288° |
| 2026-05-05 08:10 | 50.98114 | -134.32414 | 34093 ft | 483 kts | 288° |
| 2026-05-05 08:10 | 51.00935 | -134.42136 | 34089 ft | 489 kts | 296° |
| 2026-05-05 08:11 | 51.04476 | -134.51403 | 34079 ft | 493 kts | 298° |
| 2026-05-05 08:11 | 51.08130 | -134.60620 | 34080 ft | 493 kts | 298° |
| 2026-05-05 08:12 | 51.11789 | -134.69838 | 34111 ft | 493 kts | 298° |
| 2026-05-05 08:12 | 51.15434 | -134.79094 | 34086 ft | 494 kts | 297° |
| 2026-05-05 08:13 | 51.19070 | -134.88386 | 34091 ft | 494 kts | 297° |
| 2026-05-05 08:13 | 51.22695 | -134.97688 | 34092 ft | 494 kts | 297° |
| 2026-05-05 08:14 | 51.26317 | -135.07011 | 34116 ft | 494 kts | 297° |
| 2026-05-05 08:14 | 51.29939 | -135.16372 | 34102 ft | 496 kts | 297° |
| 2026-05-05 08:15 | 51.33536 | -135.25700 | 34102 ft | 496 kts | 297° |
| 2026-05-05 08:15 | 51.37151 | -135.35108 | 34105 ft | 496 kts | 297° |
| 2026-05-05 08:16 | 51.40760 | -135.44532 | 34134 ft | 496 kts | 296° |
| 2026-05-05 08:16 | 51.44366 | -135.53986 | 34107 ft | 498 kts | 296° |
| 2026-05-05 08:17 | 51.47972 | -135.63478 | 34109 ft | 498 kts | 296° |
| 2026-05-05 08:17 | 51.51572 | -135.72983 | 34109 ft | 498 kts | 296° |
| 2026-05-05 08:18 | 51.55161 | -135.82497 | 34131 ft | 498 kts | 296° |
| 2026-05-05 08:18 | 51.58747 | -135.92036 | 34114 ft | 498 kts | 295° |
| 2026-05-05 08:19 | 51.62320 | -136.01583 | 34112 ft | 498 kts | 295° |
| 2026-05-05 08:19 | 51.65891 | -136.11156 | 34115 ft | 498 kts | 295° |
| 2026-05-05 08:20 | 51.69451 | -136.20738 | 34138 ft | 498 kts | 295° |
| 2026-05-05 08:20 | 51.73003 | -136.30328 | 34116 ft | 498 kts | 295° |
| 2026-05-05 08:21 | 51.76541 | -136.39923 | 34122 ft | 497 kts | 295° |
| 2026-05-05 08:21 | 51.79475 | -136.47904 | 34124 ft | 497 kts | 295° |
| 2026-05-05 08:22 | 51.83569 | -136.59088 | 34125 ft | 497 kts | 294° |
| 2026-05-05 08:22 | 51.86512 | -136.67156 | 34130 ft | 497 kts | 294° |
| 2026-05-05 08:23 | 51.90020 | -136.76806 | 34127 ft | 497 kts | 294° |
| 2026-05-05 08:23 | 51.93519 | -136.86468 | 34131 ft | 497 kts | 294° |
| 2026-05-05 08:24 | 51.97007 | -136.96139 | 34126 ft | 497 kts | 294° |
| 2026-05-05 08:24 | 52.00466 | -137.05761 | 34127 ft | 497 kts | 294° |
| 2026-05-05 08:25 | 52.03944 | -137.15480 | 34127 ft | 498 kts | 293° |
| 2026-05-05 08:25 | 52.07413 | -137.25206 | 34125 ft | 498 kts | 293° |
| 2026-05-05 08:26 | 52.10874 | -137.34950 | 34131 ft | 497 kts | 293° |
| 2026-05-05 08:26 | 52.14328 | -137.44707 | 34138 ft | 497 kts | 292° |
| 2026-05-05 08:27 | 52.17767 | -137.54464 | 34128 ft | 497 kts | 292° |
| 2026-05-05 08:27 | 52.21198 | -137.64238 | 34126 ft | 497 kts | 292° |
| 2026-05-05 08:28 | 52.24621 | -137.74026 | 34132 ft | 497 kts | 292° |
| 2026-05-05 08:28 | 52.28033 | -137.83819 | 34128 ft | 496 kts | 291° |
| 2026-05-05 08:29 | 52.31446 | -137.93650 | 34133 ft | 499 kts | 291° |
| 2026-05-05 08:30 | 52.36561 | -138.08468 | 34130 ft | 498 kts | 291° |
| 2026-05-05 08:30 | 52.39957 | -138.18352 | 34130 ft | 498 kts | 291° |
| 2026-05-05 08:31 | 52.43345 | -138.28251 | 34129 ft | 498 kts | 290° |
| 2026-05-05 08:31 | 52.46727 | -138.38173 | 34129 ft | 499 kts | 290° |
| 2026-05-05 08:32 | 52.50100 | -138.48109 | 34128 ft | 499 kts | 290° |
| 2026-05-05 08:32 | 52.53466 | -138.58062 | 34126 ft | 498 kts | 290° |
| 2026-05-05 08:33 | 52.56821 | -138.68019 | 34130 ft | 497 kts | 290° |
| 2026-05-05 08:33 | 52.60160 | -138.77969 | 34118 ft | 496 kts | 289° |
| 2026-05-05 08:34 | 52.63484 | -138.87922 | 34122 ft | 496 kts | 289° |
| 2026-05-05 08:34 | 52.66801 | -138.97893 | 34119 ft | 496 kts | 289° |
| 2026-05-05 08:35 | 52.70112 | -139.07880 | 34107 ft | 496 kts | 289° |
| 2026-05-05 08:35 | 52.73406 | -139.17856 | 34118 ft | 495 kts | 289° |
| 2026-05-05 08:36 | 52.76689 | -139.27847 | 34097 ft | 495 kts | 289° |
| 2026-05-05 08:36 | 52.79963 | -139.37847 | 34116 ft | 495 kts | 289° |
| 2026-05-05 08:37 | 52.83229 | -139.47863 | 34117 ft | 495 kts | 288° |
| 2026-05-05 08:37 | 52.86466 | -139.57834 | 34108 ft | 495 kts | 288° |
| 2026-05-05 08:38 | 52.89718 | -139.67888 | 34103 ft | 495 kts | 288° |
| 2026-05-05 08:38 | 52.92959 | -139.77950 | 34100 ft | 495 kts | 288° |
| 2026-05-05 08:39 | 52.96194 | -139.88034 | 34126 ft | 495 kts | 287° |
| 2026-05-05 08:39 | 52.99421 | -139.98135 | 34082 ft | 496 kts | 287° |
| 2026-05-05 08:40 | 53.02795 | -140.08168 | 34102 ft | 501 kts | 291° |
| 2026-05-05 08:40 | 53.06476 | -140.18031 | 34078 ft | 503 kts | 291° |
| 2026-05-05 08:41 | 53.10157 | -140.27902 | 34125 ft | 502 kts | 291° |
| 2026-05-05 08:41 | 53.13778 | -140.37822 | 34084 ft | 501 kts | 290° |
| 2026-05-05 08:42 | 53.17360 | -140.47767 | 34077 ft | 501 kts | 290° |
| 2026-05-05 08:42 | 53.20932 | -140.57736 | 34079 ft | 500 kts | 290° |
| 2026-05-05 08:43 | 53.24493 | -140.67710 | 34071 ft | 500 kts | 290° |
| 2026-05-05 08:43 | 53.28049 | -140.77701 | 34065 ft | 500 kts | 290° |
| 2026-05-05 08:44 | 53.31592 | -140.87695 | 34062 ft | 500 kts | 290° |
| 2026-05-05 08:44 | 53.35128 | -140.97712 | 34062 ft | 500 kts | 290° |
| 2026-05-05 08:45 | 53.38631 | -141.07674 | 34081 ft | 500 kts | 290° |
| 2026-05-05 08:45 | 53.42145 | -141.17704 | 34055 ft | 499 kts | 289° |
| 2026-05-05 08:46 | 53.45649 | -141.27750 | 34046 ft | 499 kts | 289° |
| 2026-05-05 08:46 | 53.49141 | -141.37801 | 34048 ft | 499 kts | 289° |
| 2026-05-05 08:47 | 53.52626 | -141.47876 | 34041 ft | 498 kts | 289° |
| 2026-05-05 08:47 | 53.56097 | -141.57941 | 34037 ft | 496 kts | 288° |
| 2026-05-05 08:48 | 53.59543 | -141.67978 | 34032 ft | 495 kts | 288° |
| 2026-05-05 08:48 | 53.62975 | -141.78024 | 34023 ft | 495 kts | 288° |
| 2026-05-05 08:49 | 53.66398 | -141.88087 | 34023 ft | 495 kts | 288° |
| 2026-05-05 08:49 | 53.69813 | -141.98159 | 34019 ft | 494 kts | 288° |
| 2026-05-05 08:50 | 53.73215 | -142.08233 | 34016 ft | 494 kts | 287° |
| 2026-05-05 08:50 | 53.76604 | -142.18313 | 34007 ft | 493 kts | 287° |
| 2026-05-05 08:51 | 53.79984 | -142.28409 | 33998 ft | 493 kts | 287° |
| 2026-05-05 08:51 | 53.83358 | -142.38528 | 34010 ft | 494 kts | 287° |
| 2026-05-05 08:52 | 53.86726 | -142.48675 | 33988 ft | 495 kts | 287° |
| 2026-05-05 08:52 | 53.90095 | -142.58860 | 33989 ft | 495 kts | 287° |
| 2026-05-05 08:53 | 53.93453 | -142.69050 | 33977 ft | 495 kts | 287° |
| 2026-05-05 08:53 | 53.96797 | -142.79244 | 34041 ft | 495 kts | 288° |
| 2026-05-05 08:54 | 54.00121 | -142.89425 | 33968 ft | 496 kts | 288° |
| 2026-05-05 08:54 | 54.03458 | -142.99687 | 33960 ft | 496 kts | 288° |
| 2026-05-05 08:55 | 54.06792 | -143.09980 | 33961 ft | 496 kts | 287° |
| 2026-05-05 08:55 | 54.10109 | -143.20265 | 33952 ft | 496 kts | 287° |
| 2026-05-05 08:56 | 54.13420 | -143.30573 | 33947 ft | 496 kts | 288° |
| 2026-05-05 08:56 | 54.16726 | -143.40915 | 33940 ft | 497 kts | 288° |
| 2026-05-05 08:57 | 54.20025 | -143.51280 | 33933 ft | 496 kts | 288° |
| 2026-05-05 08:57 | 54.23312 | -143.61646 | 33933 ft | 496 kts | 288° |
| 2026-05-05 08:58 | 54.26589 | -143.72031 | 33931 ft | 497 kts | 288° |
| 2026-05-05 08:58 | 54.29866 | -143.82464 | 33920 ft | 498 kts | 288° |
| 2026-05-05 08:59 | 54.33140 | -143.92922 | 33913 ft | 498 kts | 288° |
| 2026-05-05 08:59 | 54.36404 | -144.03395 | 33890 ft | 498 kts | 288° |
| 2026-05-05 09:00 | 54.39659 | -144.13884 | 33915 ft | 498 kts | 288° |
| 2026-05-05 09:00 | 54.42884 | -144.24325 | 33897 ft | 498 kts | 288° |
| 2026-05-05 09:01 | 54.46119 | -144.34849 | 33896 ft | 498 kts | 288° |
| 2026-05-05 09:01 | 54.49346 | -144.45389 | 33881 ft | 498 kts | 287° |
| 2026-05-05 09:02 | 54.52563 | -144.55943 | 33935 ft | 498 kts | 287° |
| 2026-05-05 09:02 | 54.55769 | -144.66504 | 33873 ft | 498 kts | 287° |
| 2026-05-05 09:03 | 54.58964 | -144.77083 | 33868 ft | 497 kts | 287° |
| 2026-05-05 09:03 | 54.62151 | -144.87679 | 33859 ft | 497 kts | 287° |
| 2026-05-05 09:04 | 54.65326 | -144.98285 | 33859 ft | 497 kts | 287° |
| 2026-05-05 09:04 | 54.68492 | -145.08907 | 33852 ft | 497 kts | 287° |
| 2026-05-05 09:05 | 54.71648 | -145.19539 | 33838 ft | 497 kts | 287° |
| 2026-05-05 09:05 | 54.74793 | -145.30188 | 33846 ft | 497 kts | 287° |
| 2026-05-05 09:06 | 54.77928 | -145.40848 | 33837 ft | 497 kts | 287° |
| 2026-05-05 09:06 | 54.81054 | -145.51530 | 33833 ft | 496 kts | 287° |
| 2026-05-05 09:07 | 54.84166 | -145.62209 | 33832 ft | 496 kts | 287° |
| 2026-05-05 09:07 | 54.87250 | -145.72840 | 33823 ft | 496 kts | 287° |
| 2026-05-05 09:08 | 54.90364 | -145.83623 | 33818 ft | 496 kts | 287° |
| 2026-05-05 09:08 | 54.93442 | -145.94331 | 33869 ft | 496 kts | 287° |
| 2026-05-05 09:09 | 54.96492 | -146.04989 | 33800 ft | 495 kts | 287° |
| 2026-05-05 09:09 | 54.99057 | -146.13992 | 33805 ft | 495 kts | 287° |
| 2026-05-05 09:10 | 55.02598 | -146.26480 | 33789 ft | 495 kts | 287° |
| 2026-05-05 09:10 | 55.05142 | -146.35494 | 33792 ft | 495 kts | 287° |
| 2026-05-05 09:11 | 55.08149 | -146.46193 | 33789 ft | 493 kts | 287° |
| 2026-05-05 09:11 | 55.11159 | -146.56946 | 33786 ft | 492 kts | 287° |
| 2026-05-05 09:12 | 55.14154 | -146.67699 | 33776 ft | 492 kts | 287° |
| 2026-05-05 09:12 | 55.17137 | -146.78464 | 33764 ft | 492 kts | 287° |
| 2026-05-05 09:13 | 55.20107 | -146.89233 | 33786 ft | 492 kts | 287° |
| 2026-05-05 09:13 | 55.23074 | -147.00034 | 33751 ft | 491 kts | 287° |
| 2026-05-05 09:14 | 55.26025 | -147.10831 | 33757 ft | 491 kts | 287° |
| 2026-05-05 09:14 | 55.28966 | -147.21644 | 33743 ft | 491 kts | 287° |
| 2026-05-05 09:15 | 55.31897 | -147.32467 | 33741 ft | 491 kts | 287° |
| 2026-05-05 09:15 | 55.34817 | -147.43307 | 33735 ft | 491 kts | 287° |
| 2026-05-05 09:16 | 55.37728 | -147.54160 | 33716 ft | 491 kts | 287° |
| 2026-05-05 09:16 | 55.40628 | -147.65026 | 33717 ft | 491 kts | 287° |
| 2026-05-05 09:17 | 55.43520 | -147.75910 | 33721 ft | 491 kts | 287° |
| 2026-05-05 09:17 | 55.46400 | -147.86808 | 33733 ft | 491 kts | 287° |
| 2026-05-05 09:18 | 55.49271 | -147.97723 | 33699 ft | 492 kts | 287° |
| 2026-05-05 09:18 | 55.52121 | -148.08610 | 33703 ft | 492 kts | 287° |
| 2026-05-05 09:19 | 55.54978 | -148.19574 | 33692 ft | 491 kts | 287° |
| 2026-05-05 09:19 | 55.57824 | -148.30550 | 33692 ft | 491 kts | 287° |
| 2026-05-05 09:20 | 55.60661 | -148.41545 | 33684 ft | 492 kts | 287° |
| 2026-05-05 09:20 | 55.63494 | -148.52582 | 33673 ft | 492 kts | 287° |
| 2026-05-05 09:21 | 55.66315 | -148.63623 | 33673 ft | 492 kts | 287° |
| 2026-05-05 09:21 | 55.69125 | -148.74676 | 33662 ft | 492 kts | 287° |
| 2026-05-05 09:22 | 55.71925 | -148.85747 | 33667 ft | 491 kts | 288° |
| 2026-05-05 09:22 | 55.74711 | -148.96814 | 33650 ft | 491 kts | 288° |
| 2026-05-05 09:23 | 55.77484 | -149.07891 | 33648 ft | 491 kts | 287° |
| 2026-05-05 09:23 | 55.80250 | -149.18994 | 33636 ft | 491 kts | 287° |
| 2026-05-05 09:24 | 55.83002 | -149.30096 | 33674 ft | 491 kts | 288° |
| 2026-05-05 09:24 | 55.85744 | -149.41213 | 33625 ft | 491 kts | 288° |
| 2026-05-05 09:25 | 55.88478 | -149.52353 | 33613 ft | 491 kts | 288° |
| 2026-05-05 09:25 | 55.91200 | -149.63498 | 33614 ft | 491 kts | 288° |
| 2026-05-05 09:26 | 55.93912 | -149.74665 | 33602 ft | 491 kts | 288° |
| 2026-05-05 09:26 | 55.96613 | -149.85841 | 33605 ft | 490 kts | 287° |
| 2026-05-05 09:27 | 55.99291 | -149.97037 | 33586 ft | 489 kts | 285° |
| 2026-05-05 09:27 | 56.01279 | -150.08534 | 33592 ft | 484 kts | 279° |
| 2026-05-05 09:28 | 56.03006 | -150.20068 | 33595 ft | 483 kts | 279° |
| 2026-05-05 09:28 | 56.04702 | -150.31775 | 33621 ft | 483 kts | 279° |
| 2026-05-05 09:29 | 56.06368 | -150.43348 | 33581 ft | 484 kts | 279° |
| 2026-05-05 09:29 | 56.08047 | -150.55012 | 33570 ft | 484 kts | 279° |
| 2026-05-05 09:30 | 56.09718 | -150.66684 | 33568 ft | 484 kts | 279° |
| 2026-05-05 09:30 | 56.11380 | -150.78381 | 33556 ft | 484 kts | 279° |
| 2026-05-05 09:31 | 56.13028 | -150.90073 | 33589 ft | 484 kts | 279° |
| 2026-05-05 09:31 | 56.14672 | -151.01829 | 33550 ft | 486 kts | 279° |
| 2026-05-05 09:32 | 56.16300 | -151.13556 | 33549 ft | 484 kts | 279° |
| 2026-05-05 09:32 | 56.17913 | -151.25264 | 33539 ft | 483 kts | 279° |
| 2026-05-05 09:33 | 56.19516 | -151.36997 | 33542 ft | 483 kts | 279° |
| 2026-05-05 09:33 | 56.21104 | -151.48717 | 33541 ft | 484 kts | 280° |
| 2026-05-05 09:34 | 56.22688 | -151.60499 | 33534 ft | 486 kts | 280° |
| 2026-05-05 09:34 | 56.24268 | -151.72329 | 33525 ft | 486 kts | 280° |
| 2026-05-05 09:35 | 56.25835 | -151.84159 | 33528 ft | 486 kts | 279° |
| 2026-05-05 09:35 | 56.28161 | -152.01906 | 33552 ft | 486 kts | 280° |
| 2026-05-05 09:36 | 56.29703 | -152.13794 | 33530 ft | 488 kts | 280° |
| 2026-05-05 09:36 | 56.31236 | -152.25707 | 33525 ft | 489 kts | 280° |
| 2026-05-05 09:37 | 56.32761 | -152.37648 | 33522 ft | 489 kts | 280° |
| 2026-05-05 09:37 | 56.34271 | -152.49577 | 33525 ft | 488 kts | 280° |
| 2026-05-05 09:38 | 56.35769 | -152.61512 | 33531 ft | 489 kts | 280° |
| 2026-05-05 09:38 | 56.37260 | -152.73495 | 33523 ft | 489 kts | 280° |
| 2026-05-05 09:39 | 56.38730 | -152.85405 | 33526 ft | 490 kts | 280° |
| 2026-05-05 09:39 | 56.40197 | -152.97400 | 33525 ft | 490 kts | 280° |
| 2026-05-05 09:40 | 56.41653 | -153.09405 | 33538 ft | 489 kts | 280° |
| 2026-05-05 09:40 | 56.43099 | -153.21431 | 33540 ft | 490 kts | 280° |
| 2026-05-05 09:41 | 56.44533 | -153.33464 | 33537 ft | 490 kts | 280° |
| 2026-05-05 09:41 | 56.45954 | -153.45503 | 33537 ft | 490 kts | 280° |
| 2026-05-05 09:42 | 56.47367 | -153.57567 | 33542 ft | 490 kts | 280° |
| 2026-05-05 09:42 | 56.48765 | -153.69626 | 33542 ft | 490 kts | 279° |
| 2026-05-05 09:43 | 56.50151 | -153.81691 | 33542 ft | 490 kts | 280° |
| 2026-05-05 09:43 | 56.51529 | -153.93783 | 33544 ft | 490 kts | 280° |
| 2026-05-05 09:44 | 56.52892 | -154.05863 | 33545 ft | 490 kts | 280° |
| 2026-05-05 09:44 | 56.54246 | -154.17972 | 33556 ft | 490 kts | 279° |
| 2026-05-05 09:45 | 56.55585 | -154.30070 | 33566 ft | 490 kts | 280° |
| 2026-05-05 09:45 | 56.56913 | -154.42172 | 33558 ft | 490 kts | 280° |
| 2026-05-05 09:46 | 56.58230 | -154.54301 | 33561 ft | 490 kts | 280° |
| 2026-05-05 09:46 | 56.59534 | -154.66418 | 33564 ft | 490 kts | 280° |
| 2026-05-05 09:47 | 56.60827 | -154.78561 | 33564 ft | 490 kts | 279° |
| 2026-05-05 09:47 | 56.62107 | -154.90688 | 33577 ft | 488 kts | 279° |
| 2026-05-05 09:48 | 56.63366 | -155.02747 | 33573 ft | 484 kts | 279° |
| 2026-05-05 09:48 | 56.64612 | -155.14801 | 33587 ft | 487 kts | 279° |
| 2026-05-05 09:49 | 56.65850 | -155.26885 | 33584 ft | 485 kts | 279° |
| 2026-05-05 09:49 | 56.67070 | -155.38913 | 33594 ft | 482 kts | 279° |
| 2026-05-05 09:50 | 56.68272 | -155.50916 | 33598 ft | 484 kts | 279° |
| 2026-05-05 09:50 | 56.69470 | -155.62984 | 33605 ft | 487 kts | 279° |
| 2026-05-05 09:51 | 56.70661 | -155.75095 | 33605 ft | 484 kts | 279° |
| 2026-05-05 09:51 | 56.71837 | -155.87199 | 33607 ft | 488 kts | 279° |
| 2026-05-05 09:52 | 56.73007 | -155.99355 | 33606 ft | 486 kts | 279° |
| 2026-05-05 09:52 | 56.74165 | -156.11530 | 33609 ft | 488 kts | 279° |
| 2026-05-05 09:53 | 56.75313 | -156.23724 | 33610 ft | 489 kts | 279° |
| 2026-05-05 09:53 | 56.76451 | -156.35942 | 33614 ft | 488 kts | 279° |
| 2026-05-05 09:54 | 56.77574 | -156.48135 | 33617 ft | 488 kts | 279° |
| 2026-05-05 09:54 | 56.78685 | -156.60333 | 33613 ft | 488 kts | 279° |
| 2026-05-05 09:55 | 56.79784 | -156.72554 | 33622 ft | 487 kts | 279° |
| 2026-05-05 09:55 | 56.80687 | -156.82694 | 33622 ft | 487 kts | 279° |
| 2026-05-05 09:56 | 56.81763 | -156.94900 | 33619 ft | 487 kts | 279° |
| 2026-05-05 09:56 | 56.82828 | -157.07130 | 33625 ft | 487 kts | 278° |
| 2026-05-05 09:57 | 56.83880 | -157.19348 | 33630 ft | 487 kts | 278° |
| 2026-05-05 09:57 | 56.84918 | -157.31563 | 33636 ft | 485 kts | 278° |
| 2026-05-05 09:58 | 56.85941 | -157.43729 | 33655 ft | 485 kts | 278° |
| 2026-05-05 09:58 | 56.86951 | -157.55901 | 33656 ft | 485 kts | 278° |
| 2026-05-05 09:59 | 56.87952 | -157.68100 | 33666 ft | 485 kts | 278° |
| 2026-05-05 09:59 | 56.88938 | -157.80283 | 33661 ft | 484 kts | 279° |
| 2026-05-05 10:00 | 56.89910 | -157.92459 | 33680 ft | 483 kts | 278° |
| 2026-05-05 10:00 | 56.90872 | -158.04634 | 33682 ft | 483 kts | 278° |
| 2026-05-05 10:01 | 56.91821 | -158.16798 | 33692 ft | 483 kts | 278° |
| 2026-05-05 10:01 | 56.92759 | -158.28995 | 33692 ft | 483 kts | 278° |
| 2026-05-05 10:02 | 56.93684 | -158.41180 | 33697 ft | 483 kts | 278° |
| 2026-05-05 10:02 | 56.94593 | -158.53332 | 33703 ft | 481 kts | 278° |
| 2026-05-05 10:03 | 56.95493 | -158.65493 | 33702 ft | 481 kts | 278° |
| 2026-05-05 10:03 | 56.96115 | -158.77711 | 33701 ft | 482 kts | 274° |
| 2026-05-05 10:04 | 56.96479 | -158.89973 | 33687 ft | 482 kts | 274° |
| 2026-05-05 10:04 | 56.96860 | -159.02201 | 33698 ft | 480 kts | 275° |
| 2026-05-05 10:05 | 56.97278 | -159.14370 | 33707 ft | 478 kts | 275° |
| 2026-05-05 10:05 | 56.97703 | -159.26542 | 33708 ft | 478 kts | 275° |
| 2026-05-05 10:06 | 56.98116 | -159.38629 | 33720 ft | 478 kts | 275° |
| 2026-05-05 10:06 | 56.98519 | -159.50878 | 33725 ft | 478 kts | 275° |
| 2026-05-05 10:07 | 56.98906 | -159.63041 | 33722 ft | 478 kts | 274° |
| 2026-05-05 10:07 | 56.99280 | -159.75148 | 33729 ft | 479 kts | 274° |
| 2026-05-05 10:08 | 56.99644 | -159.87334 | 33738 ft | 479 kts | 274° |
| 2026-05-05 10:08 | 56.99997 | -159.99541 | 33732 ft | 479 kts | 274° |
| 2026-05-05 10:09 | 57.00418 | -160.11722 | 33735 ft | 479 kts | 275° |
| 2026-05-05 10:09 | 57.00915 | -160.23889 | 33755 ft | 478 kts | 275° |
| 2026-05-05 10:10 | 57.01394 | -160.36051 | 33761 ft | 477 kts | 275° |
| 2026-05-05 10:10 | 57.01844 | -160.48199 | 33747 ft | 478 kts | 274° |
| 2026-05-05 10:11 | 57.02277 | -160.60360 | 33766 ft | 478 kts | 274° |
| 2026-05-05 10:11 | 57.02696 | -160.72525 | 33759 ft | 477 kts | 274° |
| 2026-05-05 10:12 | 57.03105 | -160.84685 | 33768 ft | 477 kts | 274° |
| 2026-05-05 10:12 | 57.03499 | -160.96781 | 33765 ft | 472 kts | 275° |
| 2026-05-05 10:13 | 57.03880 | -161.08786 | 33778 ft | 472 kts | 274° |
| 2026-05-05 10:13 | 57.04250 | -161.20812 | 33783 ft | 471 kts | 274° |
| 2026-05-05 10:14 | 57.04606 | -161.32792 | 33794 ft | 468 kts | 274° |
| 2026-05-05 10:14 | 57.04951 | -161.44749 | 33797 ft | 471 kts | 274° |
| 2026-05-05 10:15 | 57.05286 | -161.56766 | 33808 ft | 470 kts | 274° |
| 2026-05-05 10:15 | 57.05607 | -161.68711 | 33808 ft | 469 kts | 274° |
| 2026-05-05 10:16 | 57.05919 | -161.80700 | 33809 ft | 472 kts | 274° |
| 2026-05-05 10:16 | 57.06218 | -161.92718 | 33808 ft | 469 kts | 274° |
| 2026-05-05 10:17 | 57.06505 | -162.04685 | 33824 ft | 470 kts | 273° |
| 2026-05-05 10:17 | 57.06783 | -162.16721 | 33830 ft | 472 kts | 274° |
| 2026-05-05 10:18 | 57.07047 | -162.28722 | 33842 ft | 469 kts | 274° |
| 2026-05-05 10:18 | 57.07301 | -162.40730 | 33843 ft | 472 kts | 274° |
| 2026-05-05 10:19 | 57.07544 | -162.52758 | 33851 ft | 468 kts | 273° |
| 2026-05-05 10:19 | 57.07776 | -162.64724 | 33846 ft | 471 kts | 273° |
| 2026-05-05 10:20 | 57.07997 | -162.76812 | 33862 ft | 474 kts | 273° |
| 2026-05-05 10:20 | 57.08206 | -162.88913 | 33872 ft | 473 kts | 273° |
| 2026-05-05 10:21 | 57.08404 | -163.01032 | 33885 ft | 475 kts | 273° |
| 2026-05-05 10:21 | 57.08590 | -163.13116 | 33886 ft | 472 kts | 273° |
| 2026-05-05 10:22 | 57.08764 | -163.25218 | 33888 ft | 475 kts | 274° |
| 2026-05-05 10:22 | 57.08929 | -163.37385 | 33891 ft | 477 kts | 273° |
| 2026-05-05 10:23 | 57.09082 | -163.49616 | 33912 ft | 479 kts | 272° |
| 2026-05-05 10:23 | 57.09220 | -163.61791 | 33911 ft | 478 kts | 273° |
| 2026-05-05 10:24 | 57.09348 | -163.74102 | 33921 ft | 479 kts | 272° |
| 2026-05-05 10:24 | 57.09464 | -163.86362 | 33922 ft | 479 kts | 274° |
| 2026-05-05 10:25 | 57.09569 | -163.98546 | 33944 ft | 480 kts | 274° |
| 2026-05-05 10:25 | 57.09662 | -164.10830 | 33945 ft | 481 kts | 274° |
| 2026-05-05 10:26 | 57.09744 | -164.23124 | 33953 ft | 481 kts | 272° |
| 2026-05-05 10:26 | 57.09812 | -164.35439 | 33956 ft | 482 kts | 273° |
| 2026-05-05 10:27 | 57.09870 | -164.47735 | 33956 ft | 481 kts | 273° |
| 2026-05-05 10:27 | 57.09917 | -164.60051 | 33968 ft | 481 kts | 274° |
| 2026-05-05 10:28 | 57.09949 | -164.72324 | 33987 ft | 480 kts | 273° |
| 2026-05-05 10:28 | 57.09969 | -164.84609 | 33988 ft | 481 kts | 273° |
| 2026-05-05 10:29 | 57.09977 | -164.96899 | 33998 ft | 480 kts | 272° |
| 2026-05-05 10:29 | 57.09974 | -165.09187 | 33992 ft | 481 kts | 273° |
| 2026-05-05 10:30 | 57.09960 | -165.21459 | 34019 ft | 480 kts | 272° |
| 2026-05-05 10:30 | 57.09933 | -165.33751 | 34023 ft | 480 kts | 273° |
| 2026-05-05 10:31 | 57.09895 | -165.46008 | 34027 ft | 480 kts | 272° |
| 2026-05-05 10:31 | 57.09843 | -165.58297 | 34013 ft | 480 kts | 273° |
| 2026-05-05 10:32 | 57.09781 | -165.70562 | 34032 ft | 481 kts | 272° |
| 2026-05-05 10:32 | 57.09704 | -165.82867 | 34039 ft | 481 kts | 272° |
| 2026-05-05 10:33 | 57.09617 | -165.95177 | 34052 ft | 481 kts | 272° |
| 2026-05-05 10:33 | 57.09518 | -166.07475 | 34049 ft | 481 kts | 271° |
| 2026-05-05 10:34 | 57.09407 | -166.19783 | 34056 ft | 481 kts | 272° |
| 2026-05-05 10:34 | 57.09284 | -166.32078 | 34043 ft | 481 kts | 272° |
| 2026-05-05 10:35 | 57.09148 | -166.44389 | 34062 ft | 481 kts | 271° |
| 2026-05-05 10:35 | 57.09001 | -166.56682 | 34063 ft | 481 kts | 271° |
| 2026-05-05 10:36 | 57.08841 | -166.68977 | 34073 ft | 481 kts | 271° |
| 2026-05-05 10:36 | 57.08670 | -166.81271 | 34071 ft | 481 kts | 271° |
| 2026-05-05 10:37 | 57.08486 | -166.93577 | 34075 ft | 481 kts | 271° |
| 2026-05-05 10:37 | 57.08292 | -167.05789 | 34080 ft | 481 kts | 271° |
| 2026-05-05 10:38 | 57.08119 | -167.16077 | 34085 ft | 481 kts | 271° |
| 2026-05-05 10:38 | 57.07901 | -167.28379 | 34086 ft | 481 kts | 271° |
| 2026-05-05 10:39 | 57.07633 | -167.42661 | 34093 ft | 481 kts | 271° |
| 2026-05-05 10:39 | 57.07430 | -167.52962 | 34101 ft | 481 kts | 271° |
| 2026-05-05 10:40 | 57.07176 | -167.65238 | 34107 ft | 481 kts | 271° |
| 2026-05-05 10:40 | 57.06911 | -167.77524 | 34107 ft | 481 kts | 271° |
| 2026-05-05 10:41 | 57.06633 | -167.89809 | 34091 ft | 481 kts | 271° |
| 2026-05-05 10:41 | 57.06343 | -168.02110 | 34108 ft | 483 kts | 270° |
| 2026-05-05 10:42 | 57.05883 | -168.20622 | 34116 ft | 484 kts | 270° |
| 2026-05-05 10:43 | 57.05562 | -168.32963 | 34117 ft | 484 kts | 270° |
| 2026-05-05 10:43 | 57.05228 | -168.45301 | 34124 ft | 484 kts | 270° |
| 2026-05-05 10:44 | 57.04882 | -168.57654 | 34127 ft | 484 kts | 270° |
| 2026-05-05 10:44 | 57.04526 | -168.69916 | 34130 ft | 484 kts | 270° |
| 2026-05-05 10:45 | 57.04156 | -168.82251 | 34130 ft | 484 kts | 270° |
| 2026-05-05 10:45 | 57.03770 | -168.94674 | 34141 ft | 484 kts | 270° |
| 2026-05-05 10:46 | 57.03378 | -169.06933 | 34142 ft | 484 kts | 270° |
| 2026-05-05 10:46 | 57.02972 | -169.19260 | 34145 ft | 484 kts | 270° |
| 2026-05-05 10:47 | 57.02553 | -169.31600 | 34148 ft | 484 kts | 269° |
| 2026-05-05 10:47 | 57.02118 | -169.44013 | 34158 ft | 484 kts | 269° |
| 2026-05-05 10:48 | 57.01676 | -169.56332 | 34155 ft | 484 kts | 269° |
| 2026-05-05 10:48 | 57.01221 | -169.68647 | 34160 ft | 484 kts | 269° |
| 2026-05-05 10:49 | 57.00753 | -169.80979 | 34171 ft | 484 kts | 269° |
| 2026-05-05 10:49 | 57.00277 | -169.93217 | 34176 ft | 484 kts | 269° |
| 2026-05-05 10:50 | 56.99736 | -170.05517 | 34184 ft | 485 kts | 266° |
| 2026-05-05 10:50 | 56.98704 | -170.17850 | 34181 ft | 487 kts | 263° |
| 2026-05-05 10:51 | 56.97558 | -170.30032 | 34182 ft | 489 kts | 264° |
| 2026-05-05 10:51 | 56.96457 | -170.42310 | 34184 ft | 488 kts | 264° |
| 2026-05-05 10:52 | 56.95390 | -170.54608 | 34186 ft | 488 kts | 264° |
| 2026-05-05 10:52 | 56.94324 | -170.66885 | 34185 ft | 488 kts | 264° |
| 2026-05-05 10:53 | 56.93237 | -170.79241 | 34190 ft | 488 kts | 264° |
| 2026-05-05 10:53 | 56.92151 | -170.91426 | 34194 ft | 488 kts | 264° |
| 2026-05-05 10:54 | 56.91045 | -171.03678 | 34194 ft | 488 kts | 264° |
| 2026-05-05 10:54 | 56.89925 | -171.15937 | 34198 ft | 488 kts | 264° |
| 2026-05-05 10:55 | 56.88795 | -171.28171 | 34196 ft | 488 kts | 264° |
| 2026-05-05 10:55 | 56.87654 | -171.40384 | 34208 ft | 488 kts | 264° |
| 2026-05-05 10:56 | 56.86500 | -171.52609 | 34211 ft | 488 kts | 264° |
| 2026-05-05 10:56 | 56.85335 | -171.64815 | 34208 ft | 487 kts | 264° |
| 2026-05-05 10:57 | 56.84159 | -171.77004 | 34208 ft | 487 kts | 263° |
| 2026-05-05 10:57 | 56.82969 | -171.89218 | 34219 ft | 489 kts | 263° |
| 2026-05-05 10:58 | 56.81765 | -172.01441 | 34219 ft | 490 kts | 263° |
| 2026-05-05 10:58 | 56.80547 | -172.13663 | 34223 ft | 490 kts | 263° |
| 2026-05-05 10:59 | 56.79316 | -172.25896 | 34234 ft | 490 kts | 263° |
| 2026-05-05 10:59 | 56.78074 | -172.38108 | 34227 ft | 490 kts | 263° |
| 2026-05-05 11:00 | 56.76828 | -172.50233 | 34230 ft | 489 kts | 263° |
| 2026-05-05 11:00 | 56.75556 | -172.62489 | 34239 ft | 489 kts | 263° |
| 2026-05-05 11:01 | 56.74279 | -172.74676 | 34237 ft | 489 kts | 263° |
| 2026-05-05 11:01 | 56.72991 | -172.86842 | 34240 ft | 490 kts | 263° |
| 2026-05-05 11:02 | 56.71689 | -172.99021 | 34240 ft | 490 kts | 263° |
| 2026-05-05 11:02 | 56.70384 | -173.11104 | 34244 ft | 490 kts | 263° |
| 2026-05-05 11:03 | 56.69051 | -173.23338 | 34244 ft | 490 kts | 263° |
| 2026-05-05 11:03 | 56.67715 | -173.35475 | 34249 ft | 490 kts | 263° |
| 2026-05-05 11:04 | 56.66367 | -173.47603 | 34247 ft | 490 kts | 263° |
| 2026-05-05 11:04 | 56.65004 | -173.59759 | 34252 ft | 491 kts | 263° |
| 2026-05-05 11:05 | 56.63630 | -173.71897 | 34253 ft | 491 kts | 263° |
| 2026-05-05 11:05 | 56.62241 | -173.84046 | 34257 ft | 491 kts | 262° |
| 2026-05-05 11:06 | 56.60843 | -173.96168 | 34256 ft | 491 kts | 262° |
| 2026-05-05 11:06 | 56.59433 | -174.08278 | 34257 ft | 491 kts | 262° |
| 2026-05-05 11:07 | 56.58009 | -174.20398 | 34237 ft | 491 kts | 263° |
| 2026-05-05 11:07 | 56.56577 | -174.32480 | 34257 ft | 490 kts | 263° |
| 2026-05-05 11:08 | 56.55133 | -174.44554 | 34261 ft | 490 kts | 262° |
| 2026-05-05 11:08 | 56.53680 | -174.56604 | 34263 ft | 490 kts | 262° |
| 2026-05-05 11:09 | 56.52223 | -174.68576 | 34265 ft | 490 kts | 262° |
| 2026-05-05 11:09 | 56.50735 | -174.80697 | 34233 ft | 490 kts | 262° |
| 2026-05-05 11:10 | 56.49257 | -174.92626 | 34269 ft | 488 kts | 262° |
| 2026-05-05 11:10 | 56.47763 | -175.04587 | 34260 ft | 487 kts | 262° |
| 2026-05-05 11:11 | 56.46259 | -175.16534 | 34265 ft | 488 kts | 262° |
| 2026-05-05 11:11 | 56.44741 | -175.28495 | 34265 ft | 488 kts | 262° |
| 2026-05-05 11:12 | 56.43212 | -175.40433 | 34247 ft | 488 kts | 262° |
| 2026-05-05 11:12 | 56.41675 | -175.52327 | 34273 ft | 485 kts | 262° |
| 2026-05-05 11:13 | 56.40130 | -175.64192 | 34276 ft | 485 kts | 262° |
| 2026-05-05 11:13 | 56.38578 | -175.76026 | 34276 ft | 485 kts | 262° |
| 2026-05-05 11:14 | 56.37012 | -175.87866 | 34277 ft | 485 kts | 262° |
| 2026-05-05 11:14 | 56.35436 | -175.99683 | 34251 ft | 485 kts | 261° |
| 2026-05-05 11:15 | 56.33852 | -176.11462 | 34279 ft | 482 kts | 261° |
| 2026-05-05 11:15 | 56.32259 | -176.23215 | 34277 ft | 482 kts | 261° |
| 2026-05-05 11:16 | 56.30668 | -176.34877 | 34278 ft | 482 kts | 261° |
| 2026-05-05 11:16 | 56.29045 | -176.46672 | 34281 ft | 483 kts | 261° |
| 2026-05-05 11:17 | 56.27421 | -176.58383 | 34253 ft | 482 kts | 261° |
| 2026-05-05 11:17 | 56.25790 | -176.70045 | 34277 ft | 479 kts | 261° |
| 2026-05-05 11:18 | 56.24155 | -176.81659 | 34284 ft | 478 kts | 261° |
| 2026-05-05 11:18 | 56.22523 | -176.93171 | 34279 ft | 478 kts | 261° |
| 2026-05-05 11:19 | 56.20870 | -177.04743 | 34280 ft | 479 kts | 261° |
| 2026-05-05 11:19 | 56.19206 | -177.16305 | 34251 ft | 478 kts | 260° |
| 2026-05-05 11:20 | 56.17532 | -177.27842 | 34276 ft | 476 kts | 260° |
| 2026-05-05 11:20 | 56.15855 | -177.39320 | 34274 ft | 476 kts | 260° |
| 2026-05-05 11:21 | 56.14170 | -177.50783 | 34288 ft | 476 kts | 260° |
| 2026-05-05 11:21 | 56.12470 | -177.62257 | 34289 ft | 476 kts | 260° |
| 2026-05-05 11:22 | 56.10762 | -177.73706 | 34260 ft | 476 kts | 259° |
| 2026-05-05 11:22 | 56.09043 | -177.85132 | 34287 ft | 473 kts | 259° |
| 2026-05-05 11:23 | 56.07324 | -177.96493 | 34283 ft | 473 kts | 259° |
| 2026-05-05 11:23 | 56.05887 | -178.05928 | 34285 ft | 473 kts | 259° |
| 2026-05-05 11:24 | 56.04147 | -178.17282 | 34287 ft | 473 kts | 259° |
| 2026-05-05 11:24 | 56.02400 | -178.28608 | 34285 ft | 472 kts | 259° |
| 2026-05-05 11:25 | 56.00649 | -178.39865 | 34284 ft | 468 kts | 258° |
| 2026-05-05 11:25 | 55.98898 | -178.51054 | 34287 ft | 467 kts | 258° |
| 2026-05-05 11:26 | 55.97144 | -178.62204 | 34287 ft | 467 kts | 258° |
| 2026-05-05 11:26 | 55.95375 | -178.73368 | 34287 ft | 467 kts | 258° |
| 2026-05-05 11:27 | 55.93598 | -178.84504 | 34286 ft | 467 kts | 258° |
| 2026-05-05 11:27 | 55.91810 | -178.95627 | 34286 ft | 464 kts | 258° |
| 2026-05-05 11:28 | 55.90029 | -179.06635 | 34284 ft | 462 kts | 258° |
| 2026-05-05 11:28 | 55.88243 | -179.17619 | 34284 ft | 462 kts | 258° |
| 2026-05-05 11:29 | 55.86444 | -179.28611 | 34287 ft | 462 kts | 258° |
| 2026-05-05 11:29 | 55.84638 | -179.39574 | 34284 ft | 462 kts | 258° |
| 2026-05-05 11:30 | 55.82818 | -179.50543 | 34284 ft | 462 kts | 258° |
| 2026-05-05 11:30 | 55.80992 | -179.61487 | 34284 ft | 462 kts | 258° |
| 2026-05-05 11:31 | 55.79156 | -179.72420 | 34286 ft | 462 kts | 258° |
| 2026-05-05 11:31 | 55.77308 | -179.83351 | 34283 ft | 460 kts | 258° |
| 2026-05-05 11:32 | 55.75464 | -179.94194 | 34284 ft | 458 kts | 258° |
| 2026-05-05 11:32 | 55.73612 | 179.94981 | 34282 ft | 456 kts | 258° |
| 2026-05-05 11:33 | 55.71766 | 179.84259 | 34281 ft | 454 kts | 258° |
| 2026-05-05 11:33 | 55.69917 | 179.73572 | 34284 ft | 454 kts | 258° |
| 2026-05-05 11:34 | 55.68056 | 179.62880 | 34281 ft | 454 kts | 258° |
| 2026-05-05 11:34 | 55.66199 | 179.52276 | 34279 ft | 454 kts | 258° |
| 2026-05-05 11:35 | 55.64320 | 179.41622 | 34283 ft | 453 kts | 259° |
| 2026-05-05 11:35 | 55.62452 | 179.31103 | 34279 ft | 444 kts | 259° |
| 2026-05-05 11:36 | 55.60595 | 179.20691 | 34277 ft | 443 kts | 259° |
| 2026-05-05 11:36 | 55.58737 | 179.10306 | 34279 ft | 443 kts | 259° |
| 2026-05-05 11:37 | 55.56865 | 178.99912 | 34280 ft | 443 kts | 259° |
| 2026-05-05 11:37 | 55.54986 | 178.89547 | 34271 ft | 443 kts | 259° |
| 2026-05-05 11:38 | 55.53102 | 178.79225 | 34271 ft | 440 kts | 259° |
| 2026-05-05 11:38 | 55.51220 | 178.68972 | 34261 ft | 438 kts | 259° |
| 2026-05-05 11:39 | 55.49339 | 178.58768 | 34270 ft | 437 kts | 259° |
| 2026-05-05 11:39 | 55.47449 | 178.48569 | 34272 ft | 437 kts | 259° |
| 2026-05-05 11:40 | 55.45554 | 178.38396 | 34270 ft | 437 kts | 259° |
| 2026-05-05 11:40 | 55.43651 | 178.28228 | 34266 ft | 437 kts | 258° |
| 2026-05-05 11:41 | 55.41737 | 178.18071 | 34273 ft | 437 kts | 258° |
| 2026-05-05 11:41 | 55.39818 | 178.07941 | 34274 ft | 437 kts | 258° |
| 2026-05-05 11:42 | 55.37890 | 177.97817 | 34255 ft | 437 kts | 258° |
| 2026-05-05 11:42 | 55.35950 | 177.87684 | 34254 ft | 437 kts | 257° |
| 2026-05-05 11:43 | 55.34005 | 177.77575 | 34236 ft | 437 kts | 257° |
| 2026-05-05 11:43 | 55.32050 | 177.67464 | 34260 ft | 437 kts | 256° |
| 2026-05-05 11:44 | 55.30089 | 177.57387 | 34263 ft | 436 kts | 256° |
| 2026-05-05 11:44 | 55.28118 | 177.47304 | 34258 ft | 436 kts | 256° |
| 2026-05-05 11:45 | 55.26141 | 177.37245 | 34257 ft | 437 kts | 256° |
| 2026-05-05 11:45 | 55.24156 | 177.27194 | 34252 ft | 437 kts | 256° |
| 2026-05-05 11:46 | 55.22158 | 177.17133 | 34250 ft | 437 kts | 255° |
| 2026-05-05 11:46 | 55.20155 | 177.07097 | 34246 ft | 437 kts | 255° |
| 2026-05-05 11:47 | 55.18141 | 176.97056 | 34249 ft | 437 kts | 255° |
| 2026-05-05 11:47 | 55.16121 | 176.87038 | 34241 ft | 437 kts | 255° |
| 2026-05-05 11:48 | 55.13073 | 176.72014 | 34241 ft | 437 kts | 255° |
| 2026-05-05 11:48 | 55.11046 | 176.62077 | 34232 ft | 437 kts | 254° |
| 2026-05-05 11:49 | 55.08997 | 176.52099 | 34232 ft | 437 kts | 254° |
| 2026-05-05 11:49 | 55.06926 | 176.42059 | 34226 ft | 437 kts | 254° |
| 2026-05-05 11:50 | 55.04874 | 176.32157 | 34225 ft | 437 kts | 254° |
| 2026-05-05 11:50 | 55.02801 | 176.22206 | 34220 ft | 437 kts | 254° |
| 2026-05-05 11:51 | 55.00721 | 176.12265 | 34218 ft | 437 kts | 253° |
| 2026-05-05 11:51 | 54.98628 | 176.02318 | 34209 ft | 437 kts | 253° |
| 2026-05-05 11:52 | 54.96531 | 175.92397 | 34209 ft | 437 kts | 253° |
| 2026-05-05 11:52 | 54.94422 | 175.82471 | 34203 ft | 437 kts | 253° |
| 2026-05-05 11:53 | 54.92309 | 175.72573 | 34195 ft | 436 kts | 253° |
| 2026-05-05 11:53 | 54.90193 | 175.62708 | 34185 ft | 435 kts | 252° |
| 2026-05-05 11:54 | 54.88071 | 175.52859 | 34190 ft | 435 kts | 252° |
| 2026-05-05 11:54 | 54.85945 | 175.43043 | 34196 ft | 435 kts | 252° |
| 2026-05-05 11:55 | 54.83808 | 175.33225 | 34181 ft | 435 kts | 252° |
| 2026-05-05 11:55 | 54.81666 | 175.23427 | 34189 ft | 435 kts | 252° |
| 2026-05-05 11:56 | 54.79516 | 175.13640 | 34182 ft | 435 kts | 252° |
| 2026-05-05 11:56 | 54.77354 | 175.03847 | 34176 ft | 435 kts | 251° |
| 2026-05-05 11:57 | 54.75201 | 174.94136 | 34170 ft | 435 kts | 251° |
| 2026-05-05 11:57 | 54.73027 | 174.84376 | 34174 ft | 435 kts | 251° |
| 2026-05-05 11:58 | 54.70829 | 174.74558 | 34170 ft | 435 kts | 251° |
| 2026-05-05 11:58 | 54.68652 | 174.64878 | 34172 ft | 435 kts | 251° |
| 2026-05-05 11:59 | 54.66456 | 174.55156 | 34174 ft | 434 kts | 251° |
| 2026-05-05 11:59 | 54.64251 | 174.45441 | 34158 ft | 434 kts | 251° |
| 2026-05-05 12:00 | 54.62042 | 174.35753 | 34129 ft | 434 kts | 251° |
| 2026-05-05 12:00 | 54.59829 | 174.26096 | 34158 ft | 432 kts | 251° |
| 2026-05-05 12:01 | 54.57613 | 174.16466 | 34145 ft | 432 kts | 251° |
| 2026-05-05 12:01 | 54.55393 | 174.06861 | 34148 ft | 432 kts | 250° |
| 2026-05-05 12:02 | 54.53168 | 173.97277 | 34135 ft | 430 kts | 250° |
| 2026-05-05 12:02 | 54.50943 | 173.87741 | 34136 ft | 429 kts | 250° |
| 2026-05-05 12:03 | 54.48711 | 173.78216 | 34136 ft | 429 kts | 250° |
| 2026-05-05 12:03 | 54.46470 | 173.68689 | 34125 ft | 429 kts | 250° |
| 2026-05-05 12:04 | 54.44224 | 173.59186 | 34126 ft | 429 kts | 250° |
| 2026-05-05 12:04 | 54.41971 | 173.49694 | 34113 ft | 427 kts | 249° |
| 2026-05-05 12:05 | 54.39724 | 173.40273 | 34117 ft | 426 kts | 249° |
| 2026-05-05 12:05 | 54.37468 | 173.30854 | 34093 ft | 426 kts | 249° |
| 2026-05-05 12:06 | 54.35208 | 173.21459 | 34099 ft | 426 kts | 249° |
| 2026-05-05 12:06 | 54.32940 | 173.12073 | 34095 ft | 426 kts | 249° |
| 2026-05-05 12:07 | 54.30664 | 173.02687 | 34101 ft | 425 kts | 248° |
| 2026-05-05 12:07 | 54.28398 | 172.93388 | 34132 ft | 420 kts | 249° |
| 2026-05-05 12:08 | 54.27279 | 172.88812 | 34486 ft | 415 kts | 249° |
| 2026-05-05 12:08 | 54.26542 | 172.85805 | 34659 ft | 413 kts | 248° |
| 2026-05-05 12:08 | 54.25548 | 172.81183 | 34797 ft | 413 kts | 253° |
| 2026-05-05 12:08 | 54.24714 | 172.76480 | 34918 ft | 414 kts | 254° |
| 2026-05-05 12:09 | 54.23914 | 172.71761 | 35075 ft | 413 kts | 254° |
| 2026-05-05 12:09 | 54.23132 | 172.67038 | 35244 ft | 413 kts | 254° |
| 2026-05-05 12:09 | 54.22357 | 172.62316 | 35383 ft | 413 kts | 254° |
| 2026-05-05 12:09 | 54.21580 | 172.57584 | 35537 ft | 413 kts | 254° |
| 2026-05-05 12:10 | 54.20802 | 172.52869 | 35679 ft | 413 kts | 253° |
| 2026-05-05 12:10 | 54.20020 | 172.48157 | 35822 ft | 412 kts | 253° |
| 2026-05-05 12:10 | 54.19233 | 172.43450 | 35942 ft | 413 kts | 253° |
| 2026-05-05 12:10 | 54.18444 | 172.38741 | 36030 ft | 413 kts | 253° |
| 2026-05-05 12:11 | 54.16842 | 172.29245 | 36036 ft | 418 kts | 253° |
| 2026-05-05 12:11 | 54.15224 | 172.19700 | 36034 ft | 419 kts | 253° |
| 2026-05-05 12:12 | 54.13597 | 172.10152 | 36016 ft | 419 kts | 253° |
| 2026-05-05 12:12 | 54.11967 | 172.00630 | 36021 ft | 419 kts | 252° |
| 2026-05-05 12:13 | 54.10326 | 171.91106 | 36001 ft | 419 kts | 252° |
| 2026-05-05 12:13 | 54.08674 | 171.81569 | 36001 ft | 419 kts | 252° |
| 2026-05-05 12:14 | 54.07018 | 171.72055 | 35990 ft | 419 kts | 252° |
| 2026-05-05 12:14 | 54.05352 | 171.62537 | 35989 ft | 419 kts | 252° |
| 2026-05-05 12:15 | 54.03681 | 171.53038 | 35994 ft | 419 kts | 252° |
| 2026-05-05 12:15 | 54.02001 | 171.43539 | 35977 ft | 419 kts | 252° |
| 2026-05-05 12:16 | 54.00316 | 171.34063 | 35966 ft | 419 kts | 251° |
| 2026-05-05 12:16 | 53.98623 | 171.24596 | 35966 ft | 419 kts | 251° |
| 2026-05-05 12:17 | 53.96921 | 171.15124 | 35966 ft | 419 kts | 251° |
| 2026-05-05 12:17 | 53.95214 | 171.05672 | 35949 ft | 419 kts | 251° |
| 2026-05-05 12:18 | 53.93499 | 170.96213 | 35954 ft | 421 kts | 251° |
| 2026-05-05 12:18 | 53.91764 | 170.86710 | 35939 ft | 421 kts | 251° |
| 2026-05-05 12:19 | 53.90023 | 170.77222 | 35939 ft | 422 kts | 251° |
| 2026-05-05 12:19 | 53.88273 | 170.67731 | 35894 ft | 421 kts | 250° |
| 2026-05-05 12:20 | 53.86537 | 170.58353 | 35918 ft | 414 kts | 250° |
| 2026-05-05 12:20 | 53.84812 | 170.49086 | 35907 ft | 413 kts | 250° |
| 2026-05-05 12:21 | 53.83070 | 170.39785 | 35906 ft | 415 kts | 250° |
| 2026-05-05 12:21 | 53.81331 | 170.30545 | 35887 ft | 415 kts | 250° |
| 2026-05-05 12:22 | 53.79563 | 170.21189 | 35888 ft | 415 kts | 250° |
| 2026-05-05 12:22 | 53.77811 | 170.11967 | 35873 ft | 415 kts | 250° |
| 2026-05-05 12:23 | 53.76042 | 170.02697 | 35876 ft | 415 kts | 249° |
| 2026-05-05 12:23 | 53.74265 | 169.93436 | 35856 ft | 415 kts | 249° |
| 2026-05-05 12:24 | 53.72479 | 169.84169 | 35856 ft | 415 kts | 249° |
| 2026-05-05 12:24 | 53.70689 | 169.74924 | 35855 ft | 414 kts | 249° |
| 2026-05-05 12:25 | 53.68889 | 169.65675 | 35855 ft | 415 kts | 249° |
| 2026-05-05 12:25 | 53.67084 | 169.56445 | 35873 ft | 415 kts | 249° |
| 2026-05-05 12:26 | 53.65267 | 169.47197 | 35841 ft | 417 kts | 248° |
| 2026-05-05 12:26 | 53.63428 | 169.37909 | 35839 ft | 417 kts | 248° |
| 2026-05-05 12:27 | 53.61036 | 169.29062 | 35824 ft | 415 kts | 241° |
| 2026-05-05 12:27 | 53.58333 | 169.20474 | 35824 ft | 415 kts | 240° |
| 2026-05-05 12:28 | 53.55583 | 169.11952 | 35813 ft | 415 kts | 240° |
| 2026-05-05 12:28 | 53.52828 | 169.03426 | 35817 ft | 415 kts | 239° |
| 2026-05-05 12:29 | 53.50068 | 168.94885 | 35794 ft | 416 kts | 239° |
| 2026-05-05 12:29 | 53.47303 | 168.86344 | 35794 ft | 417 kts | 239° |
| 2026-05-05 12:30 | 53.44529 | 168.77804 | 35780 ft | 416 kts | 239° |
| 2026-05-05 12:30 | 53.41754 | 168.69292 | 35781 ft | 416 kts | 239° |
| 2026-05-05 12:31 | 53.38968 | 168.60778 | 35816 ft | 416 kts | 238° |
| 2026-05-05 12:31 | 53.36174 | 168.52261 | 35760 ft | 419 kts | 238° |
| 2026-05-05 12:32 | 53.33354 | 168.43709 | 35763 ft | 419 kts | 238° |
| 2026-05-05 12:32 | 53.30533 | 168.35178 | 35746 ft | 419 kts | 238° |
| 2026-05-05 12:33 | 53.27698 | 168.26660 | 35747 ft | 419 kts | 238° |
| 2026-05-05 12:33 | 53.24859 | 168.18162 | 35727 ft | 419 kts | 238° |
| 2026-05-05 12:34 | 53.22010 | 168.09652 | 35733 ft | 420 kts | 237° |
| 2026-05-05 12:34 | 53.19146 | 168.01137 | 35713 ft | 421 kts | 237° |
| 2026-05-05 12:35 | 53.16268 | 167.92615 | 35713 ft | 421 kts | 237° |
| 2026-05-05 12:35 | 53.13389 | 167.84115 | 35694 ft | 421 kts | 237° |
| 2026-05-05 12:36 | 53.10511 | 167.75646 | 35700 ft | 418 kts | 237° |
| 2026-05-05 12:36 | 53.07647 | 167.67239 | 35691 ft | 417 kts | 237° |
| 2026-05-05 12:37 | 53.04764 | 167.58817 | 35673 ft | 421 kts | 237° |
| 2026-05-05 12:37 | 53.01856 | 167.50352 | 35653 ft | 422 kts | 237° |
| 2026-05-05 12:38 | 52.98948 | 167.41910 | 35654 ft | 421 kts | 237° |
| 2026-05-05 12:38 | 52.96034 | 167.33480 | 35641 ft | 421 kts | 237° |
| 2026-05-05 12:39 | 52.93112 | 167.25055 | 35685 ft | 422 kts | 236° |
| 2026-05-05 12:39 | 52.90167 | 167.16596 | 35635 ft | 425 kts | 236° |
| 2026-05-05 12:40 | 52.87201 | 167.08105 | 35629 ft | 427 kts | 236° |
| 2026-05-05 12:40 | 52.84223 | 166.99604 | 35611 ft | 427 kts | 236° |
| 2026-05-05 12:41 | 52.81243 | 166.91128 | 35600 ft | 427 kts | 236° |
| 2026-05-05 12:41 | 52.78253 | 166.82652 | 35616 ft | 427 kts | 236° |
| 2026-05-05 12:42 | 52.75253 | 166.74175 | 35570 ft | 429 kts | 236° |
| 2026-05-05 12:42 | 52.72238 | 166.65690 | 35585 ft | 428 kts | 236° |
| 2026-05-05 12:43 | 52.69227 | 166.57239 | 35573 ft | 427 kts | 236° |
| 2026-05-05 12:43 | 52.66233 | 166.48868 | 35575 ft | 427 kts | 236° |
| 2026-05-05 12:44 | 52.63215 | 166.40459 | 35554 ft | 427 kts | 236° |
| 2026-05-05 12:44 | 52.60187 | 166.32047 | 35568 ft | 429 kts | 235° |
| 2026-05-05 12:45 | 52.57127 | 166.23580 | 35545 ft | 431 kts | 235° |
| 2026-05-05 12:45 | 52.54062 | 166.15122 | 35537 ft | 431 kts | 235° |
| 2026-05-05 12:46 | 52.50987 | 166.06665 | 35511 ft | 431 kts | 235° |
| 2026-05-05 12:46 | 52.47910 | 165.98232 | 35529 ft | 431 kts | 235° |
| 2026-05-05 12:47 | 52.44825 | 165.89804 | 35513 ft | 432 kts | 234° |
| 2026-05-05 12:47 | 52.41709 | 165.81328 | 35502 ft | 435 kts | 234° |
| 2026-05-05 12:48 | 52.38586 | 165.72853 | 35461 ft | 435 kts | 235° |
| 2026-05-05 12:48 | 52.35465 | 165.64408 | 35489 ft | 432 kts | 234° |
| 2026-05-05 12:49 | 52.32355 | 165.56025 | 35470 ft | 431 kts | 234° |
| 2026-05-05 12:49 | 52.29237 | 165.47649 | 35470 ft | 431 kts | 234° |
| 2026-05-05 12:50 | 52.26117 | 165.39298 | 35454 ft | 431 kts | 234° |
| 2026-05-05 12:50 | 52.23009 | 165.31005 | 35459 ft | 431 kts | 234° |
| 2026-05-05 12:51 | 52.20383 | 165.24019 | 35456 ft | 431 kts | 234° |
| 2026-05-05 12:51 | 52.16736 | 165.14347 | 35456 ft | 431 kts | 234° |
| 2026-05-05 12:52 | 52.13591 | 165.06036 | 35455 ft | 432 kts | 234° |
| 2026-05-05 12:52 | 52.10932 | 164.99037 | 35445 ft | 435 kts | 234° |
| 2026-05-05 12:53 | 52.07747 | 164.90669 | 35437 ft | 435 kts | 234° |
| 2026-05-05 12:53 | 52.04551 | 164.82299 | 35437 ft | 435 kts | 234° |
| 2026-05-05 12:54 | 51.99753 | 164.69790 | 35427 ft | 435 kts | 234° |
| 2026-05-05 12:55 | 51.96550 | 164.61474 | 35430 ft | 436 kts | 234° |
| 2026-05-05 12:55 | 51.93326 | 164.53133 | 35427 ft | 437 kts | 234° |
| 2026-05-05 12:56 | 51.90086 | 164.44772 | 35427 ft | 438 kts | 234° |
| 2026-05-05 12:56 | 51.86848 | 164.36445 | 35414 ft | 438 kts | 234° |
| 2026-05-05 12:57 | 51.83602 | 164.28125 | 35416 ft | 438 kts | 234° |
| 2026-05-05 12:57 | 51.80337 | 164.19788 | 35406 ft | 441 kts | 234° |
| 2026-05-05 12:58 | 51.77043 | 164.11403 | 35412 ft | 443 kts | 234° |
| 2026-05-05 12:58 | 51.73760 | 164.03068 | 35404 ft | 443 kts | 234° |
| 2026-05-05 12:59 | 51.70428 | 163.94634 | 35404 ft | 443 kts | 234° |
| 2026-05-05 12:59 | 51.67133 | 163.86325 | 35395 ft | 443 kts | 234° |
| 2026-05-05 13:00 | 51.62128 | 163.73762 | 35403 ft | 446 kts | 234° |
| 2026-05-05 13:01 | 51.55458 | 163.57097 | 35390 ft | 442 kts | 234° |
| 2026-05-05 13:01 | 51.52116 | 163.48791 | 35375 ft | 442 kts | 234° |
| 2026-05-05 13:02 | 51.48769 | 163.40503 | 35389 ft | 444 kts | 234° |
| 2026-05-05 13:02 | 51.45389 | 163.32158 | 35387 ft | 447 kts | 234° |
| 2026-05-05 13:03 | 51.42000 | 163.23814 | 35379 ft | 447 kts | 234° |
| 2026-05-05 13:03 | 51.38605 | 163.15482 | 35378 ft | 447 kts | 234° |
| 2026-05-05 13:04 | 51.35200 | 163.07151 | 35370 ft | 447 kts | 234° |
| 2026-05-05 13:04 | 51.31787 | 162.98836 | 35379 ft | 448 kts | 234° |
| 2026-05-05 13:05 | 51.28353 | 162.90492 | 35369 ft | 450 kts | 234° |
| 2026-05-05 13:05 | 51.24905 | 162.82136 | 35367 ft | 450 kts | 234° |
| 2026-05-05 13:06 | 51.21467 | 162.73832 | 35368 ft | 447 kts | 234° |
| 2026-05-05 13:06 | 51.18036 | 162.65573 | 35368 ft | 447 kts | 234° |
| 2026-05-05 13:07 | 51.14585 | 162.57301 | 35372 ft | 449 kts | 234° |
| 2026-05-05 13:07 | 51.11118 | 162.49009 | 35374 ft | 450 kts | 234° |
| 2026-05-05 13:08 | 51.07637 | 162.40709 | 35371 ft | 451 kts | 234° |
| 2026-05-05 13:08 | 51.04154 | 162.32431 | 35363 ft | 451 kts | 234° |
| 2026-05-05 13:09 | 51.00666 | 162.24169 | 35399 ft | 451 kts | 234° |
| 2026-05-05 13:09 | 50.97155 | 162.15885 | 35375 ft | 453 kts | 234° |
| 2026-05-05 13:10 | 50.93632 | 162.07589 | 35375 ft | 454 kts | 234° |
| 2026-05-05 13:10 | 50.90097 | 161.99294 | 35370 ft | 454 kts | 234° |
| 2026-05-05 13:11 | 50.86562 | 161.91025 | 35364 ft | 453 kts | 234° |
| 2026-05-05 13:11 | 50.83020 | 161.82770 | 35386 ft | 452 kts | 234° |
| 2026-05-05 13:12 | 50.79481 | 161.74545 | 35381 ft | 453 kts | 234° |
| 2026-05-05 13:12 | 50.75935 | 161.66328 | 35374 ft | 453 kts | 234° |
| 2026-05-05 13:13 | 50.72377 | 161.58111 | 35378 ft | 453 kts | 234° |
| 2026-05-05 13:13 | 50.68818 | 161.49918 | 35387 ft | 453 kts | 234° |
| 2026-05-05 13:14 | 50.65249 | 161.41726 | 35387 ft | 453 kts | 234° |
| 2026-05-05 13:14 | 50.61678 | 161.33555 | 35389 ft | 453 kts | 234° |
| 2026-05-05 13:15 | 50.58102 | 161.25399 | 35388 ft | 453 kts | 234° |
| 2026-05-05 13:15 | 50.54515 | 161.17243 | 35401 ft | 453 kts | 233° |
| 2026-05-05 13:16 | 50.50947 | 161.09158 | 35408 ft | 453 kts | 234° |
| 2026-05-05 13:16 | 50.47317 | 161.00956 | 35388 ft | 454 kts | 234° |
| 2026-05-05 13:17 | 50.43738 | 160.92892 | 35400 ft | 452 kts | 233° |
| 2026-05-05 13:17 | 50.40144 | 160.84819 | 35411 ft | 452 kts | 233° |
| 2026-05-05 13:18 | 50.36545 | 160.76762 | 35411 ft | 452 kts | 233° |
| 2026-05-05 13:18 | 50.32932 | 160.68700 | 35413 ft | 453 kts | 233° |
| 2026-05-05 13:19 | 50.29309 | 160.60639 | 35412 ft | 453 kts | 233° |
| 2026-05-05 13:19 | 50.25673 | 160.52572 | 35412 ft | 453 kts | 233° |
| 2026-05-05 13:20 | 50.22036 | 160.44528 | 35426 ft | 453 kts | 233° |
| 2026-05-05 13:20 | 50.18393 | 160.36501 | 35452 ft | 453 kts | 233° |
| 2026-05-05 13:21 | 50.14724 | 160.28480 | 35426 ft | 455 kts | 233° |
| 2026-05-05 13:21 | 50.11039 | 160.20445 | 35429 ft | 455 kts | 233° |
| 2026-05-05 13:22 | 50.07354 | 160.12435 | 35439 ft | 455 kts | 233° |
| 2026-05-05 13:22 | 50.03673 | 160.04456 | 35443 ft | 453 kts | 233° |
| 2026-05-05 13:23 | 49.99995 | 159.96509 | 35449 ft | 454 kts | 233° |
| 2026-05-05 13:23 | 49.96303 | 159.88553 | 35449 ft | 454 kts | 233° |
| 2026-05-05 13:24 | 49.92598 | 159.80595 | 35457 ft | 454 kts | 233° |
| 2026-05-05 13:24 | 49.88893 | 159.72660 | 35463 ft | 454 kts | 233° |
| 2026-05-05 13:25 | 49.85183 | 159.64738 | 35490 ft | 454 kts | 233° |
| 2026-05-05 13:25 | 49.81452 | 159.56797 | 35461 ft | 456 kts | 233° |
| 2026-05-05 13:26 | 49.77711 | 159.48855 | 35465 ft | 457 kts | 233° |
| 2026-05-05 13:26 | 49.73957 | 159.40910 | 35483 ft | 457 kts | 233° |
| 2026-05-05 13:27 | 49.70201 | 159.32991 | 35488 ft | 457 kts | 233° |
| 2026-05-05 13:27 | 49.66375 | 159.25135 | 35479 ft | 458 kts | 233° |
| 2026-05-05 13:28 | 49.62514 | 159.17311 | 35496 ft | 459 kts | 232° |
| 2026-05-05 13:28 | 49.58651 | 159.09487 | 35495 ft | 459 kts | 233° |
| 2026-05-05 13:29 | 49.54784 | 159.01655 | 35501 ft | 459 kts | 233° |
| 2026-05-05 13:29 | 49.50919 | 158.93845 | 35513 ft | 459 kts | 233° |
| 2026-05-05 13:30 | 49.47044 | 158.86037 | 35506 ft | 459 kts | 233° |
| 2026-05-05 13:30 | 49.43159 | 158.78231 | 35512 ft | 459 kts | 233° |
| 2026-05-05 13:31 | 49.39272 | 158.70447 | 35509 ft | 460 kts | 233° |
| 2026-05-05 13:31 | 49.35403 | 158.62720 | 35515 ft | 460 kts | 233° |
| 2026-05-05 13:32 | 49.31476 | 158.54902 | 35510 ft | 459 kts | 233° |
| 2026-05-05 13:32 | 49.27605 | 158.47216 | 35528 ft | 458 kts | 233° |
| 2026-05-05 13:33 | 49.23712 | 158.39510 | 35523 ft | 458 kts | 233° |
| 2026-05-05 13:33 | 49.19810 | 158.31808 | 35535 ft | 458 kts | 233° |
| 2026-05-05 13:34 | 49.15876 | 158.24066 | 35553 ft | 458 kts | 233° |
| 2026-05-05 13:34 | 49.11991 | 158.16442 | 35553 ft | 458 kts | 233° |
| 2026-05-05 13:35 | 49.08078 | 158.08784 | 35556 ft | 458 kts | 233° |
| 2026-05-05 13:35 | 49.04154 | 158.01126 | 35556 ft | 458 kts | 233° |
| 2026-05-05 13:36 | 49.00229 | 157.93489 | 35572 ft | 458 kts | 233° |
| 2026-05-05 13:36 | 48.96934 | 157.87094 | 35572 ft | 458 kts | 233° |
| 2026-05-05 13:37 | 48.93024 | 157.79526 | 35571 ft | 458 kts | 233° |
| 2026-05-05 13:37 | 48.89091 | 157.71938 | 35580 ft | 456 kts | 233° |
| 2026-05-05 13:38 | 48.85167 | 157.64385 | 35590 ft | 456 kts | 233° |
| 2026-05-05 13:38 | 48.81233 | 157.56834 | 35599 ft | 456 kts | 233° |
| 2026-05-05 13:39 | 48.77298 | 157.49304 | 35594 ft | 456 kts | 233° |
| 2026-05-05 13:39 | 48.73351 | 157.41771 | 35600 ft | 456 kts | 233° |
| 2026-05-05 13:40 | 48.69405 | 157.34261 | 35610 ft | 456 kts | 233° |
| 2026-05-05 13:40 | 48.65454 | 157.26763 | 35622 ft | 456 kts | 233° |
| 2026-05-05 13:41 | 48.61486 | 157.19254 | 35620 ft | 457 kts | 233° |
| 2026-05-05 13:41 | 48.57512 | 157.11755 | 35612 ft | 458 kts | 233° |
| 2026-05-05 13:42 | 48.53526 | 157.04255 | 35631 ft | 457 kts | 233° |
| 2026-05-05 13:42 | 48.49553 | 156.96799 | 35636 ft | 455 kts | 233° |
| 2026-05-05 13:43 | 48.45581 | 156.89365 | 35643 ft | 456 kts | 233° |
| 2026-05-05 13:43 | 48.41588 | 156.81913 | 35643 ft | 457 kts | 233° |
| 2026-05-05 13:44 | 48.37618 | 156.74523 | 35651 ft | 457 kts | 233° |
| 2026-05-05 13:44 | 48.33587 | 156.67044 | 35663 ft | 457 kts | 233° |
| 2026-05-05 13:45 | 48.29606 | 156.59677 | 35661 ft | 457 kts | 233° |
| 2026-05-05 13:45 | 48.25597 | 156.52277 | 35664 ft | 457 kts | 233° |
| 2026-05-05 13:46 | 48.21584 | 156.44890 | 35672 ft | 457 kts | 233° |
| 2026-05-05 13:46 | 48.17559 | 156.37502 | 35680 ft | 457 kts | 233° |
| 2026-05-05 13:47 | 48.13538 | 156.30140 | 35686 ft | 456 kts | 233° |
| 2026-05-05 13:47 | 48.09509 | 156.22787 | 35688 ft | 456 kts | 233° |
| 2026-05-05 13:48 | 48.05482 | 156.15455 | 35702 ft | 456 kts | 233° |
| 2026-05-05 13:48 | 48.01450 | 156.08133 | 35703 ft | 457 kts | 233° |
| 2026-05-05 13:49 | 47.97407 | 156.00812 | 35702 ft | 457 kts | 233° |
| 2026-05-05 13:49 | 47.93361 | 155.93507 | 35716 ft | 457 kts | 233° |
| 2026-05-05 13:50 | 47.89311 | 155.86214 | 35716 ft | 457 kts | 233° |
| 2026-05-05 13:50 | 47.85251 | 155.78921 | 35722 ft | 457 kts | 233° |
| 2026-05-05 13:51 | 47.81192 | 155.71650 | 35724 ft | 457 kts | 233° |
| 2026-05-05 13:51 | 47.77128 | 155.64391 | 35722 ft | 457 kts | 233° |
| 2026-05-05 13:52 | 47.73060 | 155.57143 | 35730 ft | 455 kts | 233° |
| 2026-05-05 13:52 | 47.69002 | 155.49934 | 35735 ft | 455 kts | 233° |
| 2026-05-05 13:53 | 47.64941 | 155.42736 | 35740 ft | 455 kts | 233° |
| 2026-05-05 13:53 | 47.60868 | 155.35538 | 35748 ft | 455 kts | 233° |
| 2026-05-05 13:54 | 47.56792 | 155.28353 | 35752 ft | 456 kts | 233° |
| 2026-05-05 13:54 | 47.52706 | 155.21170 | 35754 ft | 456 kts | 233° |
| 2026-05-05 13:55 | 47.48621 | 155.14008 | 35753 ft | 456 kts | 233° |
| 2026-05-05 13:55 | 47.44531 | 155.06856 | 35759 ft | 456 kts | 233° |
| 2026-05-05 13:56 | 47.40432 | 154.99706 | 35765 ft | 455 kts | 233° |
| 2026-05-05 13:56 | 47.36339 | 154.92587 | 35766 ft | 454 kts | 233° |
| 2026-05-05 13:57 | 47.32247 | 154.85487 | 35771 ft | 454 kts | 233° |
| 2026-05-05 13:57 | 47.28157 | 154.78410 | 35774 ft | 454 kts | 232° |
| 2026-05-05 13:58 | 47.24063 | 154.71344 | 35778 ft | 454 kts | 232° |
| 2026-05-05 13:58 | 47.19959 | 154.64279 | 35778 ft | 454 kts | 232° |
| 2026-05-05 13:59 | 47.13797 | 154.53706 | 35785 ft | 454 kts | 232° |
| 2026-05-05 14:00 | 47.08322 | 154.44349 | 35790 ft | 454 kts | 232° |
| 2026-05-05 14:00 | 47.03538 | 154.36196 | 35796 ft | 454 kts | 232° |
| 2026-05-05 14:01 | 46.99419 | 154.29196 | 35801 ft | 454 kts | 233° |
| 2026-05-05 14:01 | 46.95297 | 154.22209 | 35805 ft | 453 kts | 232° |
| 2026-05-05 14:02 | 46.91178 | 154.15245 | 35800 ft | 453 kts | 233° |
| 2026-05-05 14:02 | 46.87049 | 154.08282 | 35801 ft | 453 kts | 233° |
| 2026-05-05 14:03 | 46.82911 | 154.01321 | 35811 ft | 453 kts | 232° |
| 2026-05-05 14:03 | 46.78773 | 153.94380 | 35811 ft | 453 kts | 232° |
| 2026-05-05 14:04 | 46.74632 | 153.87452 | 35809 ft | 453 kts | 233° |
| 2026-05-05 14:04 | 46.70484 | 153.80527 | 35821 ft | 453 kts | 233° |
| 2026-05-05 14:05 | 46.66337 | 153.73624 | 35820 ft | 453 kts | 233° |
| 2026-05-05 14:05 | 46.62181 | 153.66721 | 35809 ft | 453 kts | 232° |
| 2026-05-05 14:06 | 46.58027 | 153.59840 | 35824 ft | 453 kts | 233° |
| 2026-05-05 14:06 | 46.53876 | 153.52983 | 35826 ft | 452 kts | 232° |
| 2026-05-05 14:07 | 46.49718 | 153.46130 | 35829 ft | 452 kts | 232° |
| 2026-05-05 14:07 | 46.45563 | 153.39297 | 35828 ft | 452 kts | 232° |
| 2026-05-05 14:08 | 46.41396 | 153.32465 | 35822 ft | 452 kts | 233° |
| 2026-05-05 14:08 | 46.37238 | 153.25664 | 35835 ft | 451 kts | 232° |
| 2026-05-05 14:09 | 46.33080 | 153.18879 | 35844 ft | 451 kts | 232° |
| 2026-05-05 14:09 | 46.28912 | 153.12094 | 35841 ft | 451 kts | 232° |
| 2026-05-05 14:10 | 46.24746 | 153.05330 | 35847 ft | 450 kts | 233° |
| 2026-05-05 14:10 | 46.22665 | 153.01959 | 36115 ft | 446 kts | 232° |
| 2026-05-05 14:10 | 46.20604 | 152.98630 | 36392 ft | 444 kts | 232° |
| 2026-05-05 14:11 | 46.18544 | 152.95324 | 36570 ft | 443 kts | 232° |
| 2026-05-05 14:11 | 46.16479 | 152.92028 | 36706 ft | 443 kts | 232° |
| 2026-05-05 14:11 | 46.14410 | 152.88736 | 36821 ft | 444 kts | 232° |
| 2026-05-05 14:11 | 46.12329 | 152.85425 | 36848 ft | 446 kts | 232° |
| 2026-05-05 14:12 | 46.08144 | 152.78777 | 36850 ft | 450 kts | 232° |
| 2026-05-05 14:12 | 46.03968 | 152.72159 | 36850 ft | 449 kts | 232° |
| 2026-05-05 14:13 | 45.99742 | 152.65475 | 36856 ft | 448 kts | 232° |
| 2026-05-05 14:13 | 45.95570 | 152.58890 | 36851 ft | 448 kts | 232° |
| 2026-05-05 14:14 | 45.91369 | 152.52276 | 36869 ft | 448 kts | 232° |
| 2026-05-05 14:14 | 45.87166 | 152.45675 | 36849 ft | 448 kts | 232° |
| 2026-05-05 14:15 | 45.82957 | 152.39080 | 36869 ft | 448 kts | 232° |
| 2026-05-05 14:15 | 45.78720 | 152.32457 | 36859 ft | 448 kts | 232° |
| 2026-05-05 14:16 | 45.74535 | 152.25931 | 36856 ft | 448 kts | 232° |
| 2026-05-05 14:16 | 45.70323 | 152.19379 | 36870 ft | 447 kts | 232° |
| 2026-05-05 14:17 | 45.66078 | 152.12792 | 36873 ft | 447 kts | 232° |
| 2026-05-05 14:17 | 45.61886 | 152.06301 | 36873 ft | 447 kts | 232° |
| 2026-05-05 14:18 | 45.57665 | 151.99782 | 36876 ft | 447 kts | 232° |
| 2026-05-05 14:18 | 45.53433 | 151.93262 | 36876 ft | 447 kts | 232° |
| 2026-05-05 14:19 | 45.49205 | 151.86763 | 36877 ft | 447 kts | 232° |
| 2026-05-05 14:19 | 45.44973 | 151.80274 | 36883 ft | 447 kts | 232° |
| 2026-05-05 14:20 | 45.40733 | 151.73787 | 36874 ft | 447 kts | 232° |
| 2026-05-05 14:20 | 45.36499 | 151.67325 | 36884 ft | 446 kts | 232° |
| 2026-05-05 14:21 | 45.32257 | 151.60868 | 36892 ft | 446 kts | 232° |
| 2026-05-05 14:21 | 45.28735 | 151.55515 | 36890 ft | 446 kts | 232° |
| 2026-05-05 14:22 | 45.24492 | 151.49083 | 36891 ft | 446 kts | 232° |
| 2026-05-05 14:22 | 45.20241 | 151.42654 | 36895 ft | 446 kts | 232° |
| 2026-05-05 14:23 | 45.15995 | 151.36246 | 36895 ft | 446 kts | 232° |
| 2026-05-05 14:23 | 45.11746 | 151.29849 | 36885 ft | 446 kts | 232° |
| 2026-05-05 14:24 | 45.07489 | 151.23454 | 36896 ft | 446 kts | 232° |
| 2026-05-05 14:24 | 45.03233 | 151.17078 | 36896 ft | 446 kts | 232° |
| 2026-05-05 14:25 | 44.98971 | 151.10705 | 36896 ft | 446 kts | 232° |
| 2026-05-05 14:25 | 44.94699 | 151.04333 | 36899 ft | 446 kts | 232° |
| 2026-05-05 14:26 | 44.90430 | 150.97979 | 36881 ft | 446 kts | 232° |
| 2026-05-05 14:26 | 44.86147 | 150.91621 | 36908 ft | 447 kts | 232° |
| 2026-05-05 14:27 | 44.81864 | 150.85277 | 36905 ft | 447 kts | 232° |
| 2026-05-05 14:27 | 44.77577 | 150.78941 | 36905 ft | 447 kts | 232° |
| 2026-05-05 14:28 | 44.73281 | 150.72607 | 36906 ft | 446 kts | 232° |
| 2026-05-05 14:28 | 44.68996 | 150.66305 | 36913 ft | 446 kts | 232° |
| 2026-05-05 14:29 | 44.64705 | 150.60006 | 36915 ft | 446 kts | 232° |
| 2026-05-05 14:29 | 44.60417 | 150.53727 | 36919 ft | 446 kts | 232° |
| 2026-05-05 14:30 | 44.56118 | 150.47447 | 36908 ft | 445 kts | 232° |
| 2026-05-05 14:30 | 44.51833 | 150.41203 | 36925 ft | 444 kts | 232° |
| 2026-05-05 14:31 | 44.47553 | 150.34977 | 36922 ft | 444 kts | 232° |
| 2026-05-05 14:31 | 44.43264 | 150.28752 | 36929 ft | 444 kts | 232° |
| 2026-05-05 14:32 | 44.38979 | 150.22549 | 36888 ft | 443 kts | 232° |
| 2026-05-05 14:32 | 44.34691 | 150.16356 | 36920 ft | 442 kts | 232° |
| 2026-05-05 14:33 | 44.30411 | 150.10186 | 36942 ft | 442 kts | 232° |
| 2026-05-05 14:33 | 44.26128 | 150.04026 | 36943 ft | 442 kts | 232° |
| 2026-05-05 14:34 | 44.21836 | 149.97867 | 36935 ft | 442 kts | 232° |
| 2026-05-05 14:34 | 44.17547 | 149.91726 | 36945 ft | 442 kts | 232° |
| 2026-05-05 14:35 | 44.13253 | 149.85591 | 36957 ft | 442 kts | 232° |
| 2026-05-05 14:35 | 44.08953 | 149.79461 | 36954 ft | 442 kts | 232° |
| 2026-05-05 14:36 | 44.04656 | 149.73350 | 36953 ft | 442 kts | 232° |
| 2026-05-05 14:36 | 44.00356 | 149.67248 | 36965 ft | 442 kts | 232° |
| 2026-05-05 14:37 | 43.96049 | 149.61150 | 36966 ft | 442 kts | 232° |
| 2026-05-05 14:37 | 43.91747 | 149.55071 | 36966 ft | 442 kts | 232° |
| 2026-05-05 14:38 | 43.87435 | 149.48992 | 36977 ft | 442 kts | 232° |
| 2026-05-05 14:38 | 43.83126 | 149.42931 | 36977 ft | 442 kts | 232° |
| 2026-05-05 14:39 | 43.78815 | 149.36879 | 36974 ft | 442 kts | 232° |
| 2026-05-05 14:39 | 43.74494 | 149.30827 | 36964 ft | 442 kts | 232° |
| 2026-05-05 14:40 | 43.70179 | 149.24798 | 36988 ft | 441 kts | 232° |
| 2026-05-05 14:40 | 43.65860 | 149.18776 | 36959 ft | 441 kts | 232° |
| 2026-05-05 14:41 | 43.61573 | 149.12809 | 36988 ft | 440 kts | 232° |
| 2026-05-05 14:41 | 43.57259 | 149.06818 | 36979 ft | 440 kts | 232° |
| 2026-05-05 14:42 | 43.52910 | 149.00793 | 36996 ft | 440 kts | 232° |
| 2026-05-05 14:42 | 43.48616 | 148.94857 | 36996 ft | 440 kts | 232° |
| 2026-05-05 14:43 | 43.44295 | 148.88895 | 37002 ft | 440 kts | 232° |
| 2026-05-05 14:43 | 43.39970 | 148.82942 | 37001 ft | 440 kts | 232° |
| 2026-05-05 14:44 | 43.35631 | 148.76983 | 37004 ft | 441 kts | 232° |
| 2026-05-05 14:44 | 43.31291 | 148.71034 | 37004 ft | 441 kts | 231° |
| 2026-05-05 14:45 | 43.26947 | 148.65093 | 37008 ft | 442 kts | 231° |
| 2026-05-05 14:45 | 43.22585 | 148.59138 | 37005 ft | 443 kts | 231° |
| 2026-05-05 14:46 | 43.18217 | 148.53187 | 37011 ft | 443 kts | 231° |
| 2026-05-05 14:46 | 43.13835 | 148.47233 | 37021 ft | 443 kts | 231° |
| 2026-05-05 14:47 | 43.09458 | 148.41297 | 37024 ft | 443 kts | 231° |
| 2026-05-05 14:47 | 43.05076 | 148.35368 | 37024 ft | 444 kts | 231° |
| 2026-05-05 14:48 | 43.00683 | 148.29435 | 37028 ft | 444 kts | 231° |
| 2026-05-05 14:48 | 42.96292 | 148.23519 | 37029 ft | 444 kts | 231° |
| 2026-05-05 14:49 | 42.91898 | 148.17612 | 37014 ft | 444 kts | 231° |
| 2026-05-05 14:49 | 42.87491 | 148.11699 | 37030 ft | 444 kts | 231° |
| 2026-05-05 14:50 | 42.83088 | 148.05802 | 37038 ft | 444 kts | 231° |
| 2026-05-05 14:50 | 42.78680 | 147.99912 | 37036 ft | 444 kts | 231° |
| 2026-05-05 14:51 | 42.74265 | 147.94024 | 37039 ft | 444 kts | 231° |
| 2026-05-05 14:51 | 42.69849 | 147.88149 | 37043 ft | 444 kts | 231° |
| 2026-05-05 14:52 | 42.65429 | 147.82281 | 37047 ft | 444 kts | 230° |
| 2026-05-05 14:52 | 42.60999 | 147.76411 | 37044 ft | 445 kts | 230° |
| 2026-05-05 14:53 | 42.56571 | 147.70557 | 37055 ft | 445 kts | 230° |
| 2026-05-05 14:53 | 42.52139 | 147.64710 | 37059 ft | 444 kts | 230° |
| 2026-05-05 14:54 | 42.47714 | 147.58883 | 37056 ft | 444 kts | 230° |
| 2026-05-05 14:54 | 42.43279 | 147.53056 | 37057 ft | 444 kts | 230° |
| 2026-05-05 14:55 | 42.38855 | 147.47257 | 37439 ft | 440 kts | 230° |
| 2026-05-05 14:55 | 42.36665 | 147.44394 | 37736 ft | 437 kts | 230° |
| 2026-05-05 14:55 | 42.34517 | 147.41582 | 37958 ft | 434 kts | 230° |
| 2026-05-05 14:56 | 42.30141 | 147.35849 | 38074 ft | 437 kts | 230° |
| 2026-05-05 14:56 | 42.25755 | 147.30111 | 38073 ft | 441 kts | 230° |
| 2026-05-05 14:57 | 42.21344 | 147.24364 | 38075 ft | 440 kts | 230° |
| 2026-05-05 14:57 | 42.16938 | 147.18638 | 38076 ft | 440 kts | 230° |
| 2026-05-05 14:58 | 42.12560 | 147.12957 | 38065 ft | 440 kts | 229° |
| 2026-05-05 14:58 | 42.08149 | 147.07243 | 38083 ft | 441 kts | 229° |
| 2026-05-05 14:59 | 42.03695 | 147.01487 | 38084 ft | 441 kts | 229° |
| 2026-05-05 14:59 | 41.99377 | 146.95731 | 38085 ft | 437 kts | 234° |
| 2026-05-05 15:00 | 41.96490 | 146.90198 | 38084 ft | 429 kts | 246° |
| 2026-05-05 15:00 | 41.94297 | 146.81500 | 38086 ft | 422 kts | 263° |
| 2026-05-05 15:01 | 41.94246 | 146.73646 | 38087 ft | 422 kts | 277° |
| 2026-05-05 15:01 | 41.95877 | 146.66071 | 38088 ft | 426 kts | 291° |
| 2026-05-05 15:02 | 41.98093 | 146.58692 | 38088 ft | 425 kts | 287° |
| 2026-05-05 15:02 | 42.00005 | 146.51180 | 38085 ft | 425 kts | 286° |
| 2026-05-05 15:03 | 42.01841 | 146.43635 | 38076 ft | 425 kts | 285° |
| 2026-05-05 15:03 | 42.03643 | 146.36081 | 38081 ft | 423 kts | 285° |
| 2026-05-05 15:04 | 42.05432 | 146.28544 | 38067 ft | 423 kts | 285° |
| 2026-05-05 15:04 | 42.07222 | 146.20994 | 38074 ft | 423 kts | 285° |
| 2026-05-05 15:05 | 42.09895 | 146.09689 | 38063 ft | 422 kts | 285° |
| 2026-05-05 15:06 | 42.11369 | 146.03431 | 38066 ft | 422 kts | 285° |
| 2026-05-05 15:06 | 42.13139 | 145.95894 | 38063 ft | 422 kts | 285° |
| 2026-05-05 15:07 | 42.14900 | 145.88365 | 38061 ft | 422 kts | 285° |
| 2026-05-05 15:07 | 42.16659 | 145.80825 | 38074 ft | 420 kts | 285° |
| 2026-05-05 15:08 | 42.18401 | 145.73332 | 38044 ft | 418 kts | 285° |
| 2026-05-05 15:08 | 42.20135 | 145.65845 | 38047 ft | 418 kts | 285° |
| 2026-05-05 15:09 | 42.21861 | 145.58368 | 38040 ft | 418 kts | 285° |
| 2026-05-05 15:09 | 42.23582 | 145.50890 | 38039 ft | 418 kts | 285° |
| 2026-05-05 15:10 | 42.25304 | 145.43401 | 38065 ft | 418 kts | 284° |
| 2026-05-05 15:10 | 42.27008 | 145.35919 | 38040 ft | 417 kts | 284° |
| 2026-05-05 15:11 | 42.28709 | 145.28427 | 38030 ft | 417 kts | 284° |
| 2026-05-05 15:11 | 42.30405 | 145.20944 | 38029 ft | 417 kts | 284° |
| 2026-05-05 15:12 | 42.32098 | 145.13454 | 38028 ft | 417 kts | 284° |
| 2026-05-05 15:12 | 42.33786 | 145.05955 | 38043 ft | 417 kts | 284° |
| 2026-05-05 15:13 | 42.35469 | 144.98460 | 38029 ft | 417 kts | 284° |
| 2026-05-05 15:13 | 42.37149 | 144.90947 | 38028 ft | 417 kts | 284° |
| 2026-05-05 15:14 | 42.38821 | 144.83443 | 38016 ft | 417 kts | 284° |
| 2026-05-05 15:14 | 42.40488 | 144.75939 | 38019 ft | 417 kts | 284° |
| 2026-05-05 15:15 | 42.42152 | 144.68418 | 38018 ft | 417 kts | 284° |
| 2026-05-05 15:15 | 42.43809 | 144.60905 | 37968 ft | 417 kts | 284° |
| 2026-05-05 15:16 | 42.45466 | 144.53365 | 38005 ft | 418 kts | 284° |
| 2026-05-05 15:16 | 42.47121 | 144.45810 | 38009 ft | 419 kts | 284° |
| 2026-05-05 15:17 | 42.48771 | 144.38249 | 37994 ft | 419 kts | 284° |
| 2026-05-05 15:17 | 42.50419 | 144.30674 | 37995 ft | 419 kts | 284° |
| 2026-05-05 15:18 | 42.52061 | 144.23095 | 37987 ft | 420 kts | 284° |
| 2026-05-05 15:18 | 42.53703 | 144.15493 | 37991 ft | 420 kts | 284° |
| 2026-05-05 15:19 | 42.55338 | 144.07894 | 37977 ft | 420 kts | 284° |
| 2026-05-05 15:19 | 42.56957 | 144.00343 | 37981 ft | 420 kts | 284° |
| 2026-05-05 15:20 | 42.58595 | 143.92675 | 37968 ft | 422 kts | 284° |
| 2026-05-05 15:20 | 42.60221 | 143.85033 | 37971 ft | 426 kts | 284° |
| 2026-05-05 15:21 | 42.61869 | 143.77261 | 37968 ft | 425 kts | 284° |
| 2026-05-05 15:21 | 42.63497 | 143.69557 | 37966 ft | 425 kts | 284° |
| 2026-05-05 15:22 | 42.65120 | 143.61850 | 37955 ft | 425 kts | 284° |
| 2026-05-05 15:22 | 42.66739 | 143.54126 | 37960 ft | 425 kts | 284° |
| 2026-05-05 15:23 | 42.68345 | 143.46443 | 37946 ft | 426 kts | 284° |
| 2026-05-05 15:23 | 42.69956 | 143.38703 | 37947 ft | 426 kts | 284° |
| 2026-05-05 15:24 | 42.71560 | 143.30964 | 37933 ft | 425 kts | 283° |
| 2026-05-05 15:24 | 42.72741 | 143.23144 | 37940 ft | 420 kts | 273° |
| 2026-05-05 15:25 | 42.72472 | 143.15242 | 37920 ft | 420 kts | 262° |
| 2026-05-05 15:25 | 42.71466 | 143.07375 | 37950 ft | 424 kts | 260° |
| 2026-05-05 15:26 | 42.70343 | 142.99461 | 37952 ft | 428 kts | 259° |
| 2026-05-05 15:26 | 42.69221 | 142.91533 | 37979 ft | 427 kts | 260° |
| 2026-05-05 15:27 | 42.68107 | 142.83565 | 37984 ft | 430 kts | 260° |
| 2026-05-05 15:27 | 42.66996 | 142.75596 | 38012 ft | 429 kts | 260° |
| 2026-05-05 15:28 | 42.65879 | 142.67619 | 38014 ft | 430 kts | 260° |
| 2026-05-05 15:28 | 42.64755 | 142.59642 | 38046 ft | 430 kts | 260° |
| 2026-05-05 15:29 | 42.63624 | 142.51669 | 38042 ft | 430 kts | 260° |
| 2026-05-05 15:29 | 42.62489 | 142.43702 | 38060 ft | 430 kts | 260° |
| 2026-05-05 15:30 | 42.61345 | 142.35718 | 38067 ft | 430 kts | 260° |
| 2026-05-05 15:30 | 42.60197 | 142.27746 | 38065 ft | 431 kts | 260° |
| 2026-05-05 15:31 | 42.59043 | 142.19776 | 38096 ft | 430 kts | 260° |
| 2026-05-05 15:31 | 42.57898 | 142.11919 | 38059 ft | 421 kts | 260° |
| 2026-05-05 15:32 | 42.56760 | 142.04145 | 38040 ft | 420 kts | 260° |
| 2026-05-05 15:32 | 42.54940 | 141.96620 | 38035 ft | 423 kts | 247° |
| 2026-05-05 15:33 | 42.51663 | 141.89918 | 38031 ft | 431 kts | 234° |
| 2026-05-05 15:33 | 42.47649 | 141.83905 | 38032 ft | 427 kts | 232° |
| 2026-05-05 15:34 | 42.43625 | 141.78135 | 38036 ft | 423 kts | 232° |
| 2026-05-05 15:34 | 42.39605 | 141.72344 | 38033 ft | 422 kts | 232° |
| 2026-05-05 15:35 | 42.35603 | 141.66538 | 37975 ft | 422 kts | 232° |
| 2026-05-05 15:35 | 42.31584 | 141.60702 | 38034 ft | 426 kts | 232° |
| 2026-05-05 15:36 | 42.27521 | 141.54812 | 38044 ft | 431 kts | 232° |
| 2026-05-05 15:36 | 42.23429 | 141.48901 | 38040 ft | 430 kts | 232° |
| 2026-05-05 15:37 | 42.19342 | 141.43010 | 38036 ft | 431 kts | 232° |
| 2026-05-05 15:37 | 42.15222 | 141.37080 | 38040 ft | 436 kts | 231° |
| 2026-05-05 15:38 | 42.11073 | 141.31125 | 38041 ft | 435 kts | 231° |
| 2026-05-05 15:38 | 42.06933 | 141.25195 | 38030 ft | 435 kts | 231° |
| 2026-05-05 15:39 | 42.02796 | 141.19280 | 38040 ft | 433 kts | 231° |
| 2026-05-05 15:39 | 41.98677 | 141.13402 | 38044 ft | 432 kts | 231° |
| 2026-05-05 15:40 | 41.94556 | 141.07532 | 38050 ft | 432 kts | 231° |
| 2026-05-05 15:40 | 41.90438 | 141.01676 | 38059 ft | 430 kts | 231° |
| 2026-05-05 15:41 | 41.86337 | 140.95862 | 38063 ft | 427 kts | 231° |
| 2026-05-05 15:41 | 41.82256 | 140.90084 | 38076 ft | 427 kts | 231° |
| 2026-05-05 15:42 | 41.78151 | 140.84339 | 38024 ft | 428 kts | 228° |
| 2026-05-05 15:42 | 41.73565 | 140.79141 | 38077 ft | 435 kts | 223° |
| 2026-05-05 15:43 | 41.68800 | 140.74093 | 38074 ft | 438 kts | 223° |
| 2026-05-05 15:43 | 41.63999 | 140.69073 | 38073 ft | 437 kts | 223° |
| 2026-05-05 15:44 | 41.59212 | 140.64063 | 38070 ft | 438 kts | 222° |
| 2026-05-05 15:44 | 41.54407 | 140.59028 | 38075 ft | 439 kts | 222° |
| 2026-05-05 15:45 | 41.49604 | 140.54003 | 38080 ft | 439 kts | 222° |
| 2026-05-05 15:45 | 41.44829 | 140.49014 | 38062 ft | 439 kts | 222° |
| 2026-05-05 15:46 | 41.39979 | 140.43955 | 38085 ft | 441 kts | 222° |
| 2026-05-05 15:46 | 41.35179 | 140.38963 | 38090 ft | 441 kts | 222° |
| 2026-05-05 15:47 | 41.30346 | 140.33948 | 38090 ft | 441 kts | 222° |
| 2026-05-05 15:47 | 41.25513 | 140.28940 | 38086 ft | 441 kts | 222° |
| 2026-05-05 15:48 | 41.20671 | 140.23932 | 38089 ft | 441 kts | 222° |
| 2026-05-05 15:48 | 41.15833 | 140.18938 | 38095 ft | 441 kts | 222° |
| 2026-05-05 15:49 | 41.11000 | 140.13921 | 38095 ft | 441 kts | 223° |
| 2026-05-05 15:49 | 41.07077 | 140.09616 | 38095 ft | 441 kts | 224° |
| 2026-05-05 15:50 | 41.02385 | 140.04394 | 38096 ft | 441 kts | 224° |
| 2026-05-05 15:50 | 40.97665 | 139.99196 | 38089 ft | 441 kts | 224° |
| 2026-05-05 15:51 | 40.92940 | 139.94037 | 38099 ft | 440 kts | 223° |
| 2026-05-05 15:51 | 40.88214 | 139.88896 | 38100 ft | 440 kts | 223° |
| 2026-05-05 15:52 | 40.83477 | 139.83755 | 38099 ft | 440 kts | 223° |
| 2026-05-05 15:52 | 40.78746 | 139.78624 | 38108 ft | 441 kts | 223° |
| 2026-05-05 15:53 | 40.74003 | 139.73493 | 38115 ft | 441 kts | 223° |
| 2026-05-05 15:53 | 40.69250 | 139.68360 | 38113 ft | 441 kts | 223° |
| 2026-05-05 15:54 | 40.64508 | 139.63249 | 38124 ft | 440 kts | 223° |
| 2026-05-05 15:54 | 40.59759 | 139.58138 | 38129 ft | 441 kts | 223° |
| 2026-05-05 15:55 | 40.55012 | 139.53039 | 38124 ft | 441 kts | 223° |
| 2026-05-05 15:55 | 40.50255 | 139.47941 | 38119 ft | 441 kts | 223° |
| 2026-05-05 15:56 | 40.45509 | 139.42863 | 38132 ft | 440 kts | 223° |
| 2026-05-05 15:56 | 40.40761 | 139.37793 | 38132 ft | 440 kts | 223° |
| 2026-05-05 15:57 | 40.36004 | 139.32722 | 38120 ft | 440 kts | 223° |
| 2026-05-05 15:57 | 40.31283 | 139.27701 | 38130 ft | 440 kts | 223° |
| 2026-05-05 15:58 | 40.26513 | 139.22628 | 38133 ft | 437 kts | 223° |
| 2026-05-05 15:58 | 40.21824 | 139.17662 | 38133 ft | 437 kts | 223° |
| 2026-05-05 15:59 | 40.17094 | 139.12661 | 38129 ft | 437 kts | 223° |
| 2026-05-05 15:59 | 40.12367 | 139.07670 | 38136 ft | 437 kts | 223° |
| 2026-05-05 16:00 | 40.07630 | 139.02677 | 38132 ft | 437 kts | 223° |
| 2026-05-05 16:00 | 40.02900 | 138.97701 | 38138 ft | 436 kts | 223° |
| 2026-05-05 16:01 | 39.98182 | 138.92747 | 38131 ft | 435 kts | 223° |
| 2026-05-05 16:01 | 39.93456 | 138.87793 | 38129 ft | 436 kts | 223° |
| 2026-05-05 16:02 | 39.88740 | 138.82858 | 38130 ft | 434 kts | 223° |
| 2026-05-05 16:02 | 39.84032 | 138.77942 | 38131 ft | 433 kts | 223° |
| 2026-05-05 16:03 | 39.79331 | 138.73041 | 38142 ft | 433 kts | 223° |
| 2026-05-05 16:03 | 39.74630 | 138.68149 | 38135 ft | 433 kts | 223° |
| 2026-05-05 16:04 | 39.69927 | 138.63262 | 38138 ft | 433 kts | 223° |
| 2026-05-05 16:04 | 39.65214 | 138.58376 | 38141 ft | 433 kts | 223° |
| 2026-05-05 16:05 | 39.60506 | 138.53502 | 38132 ft | 433 kts | 223° |
| 2026-05-05 16:05 | 39.55793 | 138.48634 | 38133 ft | 432 kts | 223° |
| 2026-05-05 16:06 | 39.51095 | 138.43789 | 38140 ft | 431 kts | 223° |
| 2026-05-05 16:06 | 39.46402 | 138.38959 | 38140 ft | 430 kts | 223° |
| 2026-05-05 16:07 | 39.41720 | 138.34146 | 38140 ft | 430 kts | 223° |
| 2026-05-05 16:07 | 39.37037 | 138.29341 | 38140 ft | 430 kts | 223° |
| 2026-05-05 16:08 | 39.32386 | 138.24480 | 38143 ft | 428 kts | 227° |
| 2026-05-05 16:08 | 39.28555 | 138.18723 | 38143 ft | 421 kts | 240° |
| 2026-05-05 16:09 | 39.25944 | 138.12006 | 38143 ft | 419 kts | 248° |
| 2026-05-05 16:09 | 39.23686 | 138.05067 | 38143 ft | 419 kts | 249° |
| 2026-05-05 16:10 | 39.21464 | 137.98120 | 38132 ft | 419 kts | 248° |
| 2026-05-05 16:10 | 39.19214 | 137.91184 | 38142 ft | 420 kts | 248° |
| 2026-05-05 16:11 | 39.16940 | 137.84248 | 38140 ft | 420 kts | 248° |
| 2026-05-05 16:12 | 39.12392 | 137.70452 | 38137 ft | 420 kts | 248° |
| 2026-05-05 16:13 | 39.06662 | 137.53154 | 38132 ft | 420 kts | 248° |
| 2026-05-05 16:13 | 39.04364 | 137.46246 | 38124 ft | 420 kts | 248° |
| 2026-05-05 16:14 | 38.99751 | 137.32430 | 38136 ft | 420 kts | 247° |
| 2026-05-05 16:15 | 38.95123 | 137.18633 | 38134 ft | 420 kts | 247° |
| 2026-05-05 16:16 | 38.90476 | 137.04842 | 38139 ft | 421 kts | 247° |
| 2026-05-05 16:17 | 38.86970 | 136.94507 | 38126 ft | 421 kts | 247° |
| 2026-05-05 16:18 | 38.83449 | 136.84156 | 38129 ft | 423 kts | 247° |
| 2026-05-05 16:19 | 38.79914 | 136.73797 | 38129 ft | 423 kts | 247° |
| 2026-05-05 16:19 | 38.76373 | 136.63460 | 38125 ft | 422 kts | 247° |
| 2026-05-05 16:20 | 38.71637 | 136.49690 | 38126 ft | 422 kts | 246° |
| 2026-05-05 16:22 | 38.65696 | 136.32506 | 38126 ft | 422 kts | 246° |
| 2026-05-05 16:23 | 38.60924 | 136.18778 | 38122 ft | 422 kts | 246° |
| 2026-05-05 16:23 | 38.57330 | 136.08480 | 38121 ft | 423 kts | 246° |
| 2026-05-05 16:24 | 38.54931 | 136.01626 | 38121 ft | 423 kts | 246° |
| 2026-05-05 16:25 | 38.51323 | 135.91349 | 38122 ft | 423 kts | 246° |
| 2026-05-05 16:25 | 38.47702 | 135.81069 | 38124 ft | 423 kts | 246° |
| 2026-05-05 16:26 | 38.42877 | 135.67430 | 38118 ft | 423 kts | 246° |
| 2026-05-05 16:27 | 38.40450 | 135.60593 | 38126 ft | 423 kts | 246° |
| 2026-05-05 16:27 | 38.38024 | 135.53774 | 38120 ft | 423 kts | 246° |
| 2026-05-05 16:28 | 38.35595 | 135.46960 | 38118 ft | 423 kts | 246° |
| 2026-05-05 16:28 | 38.33156 | 135.40137 | 38121 ft | 423 kts | 246° |
| 2026-05-05 16:29 | 38.30712 | 135.33315 | 38118 ft | 424 kts | 246° |
| 2026-05-05 16:29 | 38.28259 | 135.26484 | 38118 ft | 424 kts | 246° |
| 2026-05-05 16:30 | 38.25805 | 135.19663 | 38120 ft | 425 kts | 246° |
| 2026-05-05 16:30 | 38.23342 | 135.12835 | 38117 ft | 425 kts | 246° |
| 2026-05-05 16:31 | 38.20869 | 135.05996 | 38120 ft | 425 kts | 246° |
| 2026-05-05 16:31 | 38.18396 | 134.99170 | 38119 ft | 425 kts | 246° |
| 2026-05-05 16:32 | 38.15915 | 134.92338 | 38117 ft | 425 kts | 246° |
| 2026-05-05 16:32 | 38.13434 | 134.85523 | 38115 ft | 425 kts | 245° |
| 2026-05-05 16:33 | 38.10950 | 134.78713 | 38116 ft | 425 kts | 245° |
| 2026-05-05 16:33 | 38.08459 | 134.71900 | 38101 ft | 425 kts | 245° |
| 2026-05-05 16:34 | 38.05969 | 134.65105 | 38114 ft | 425 kts | 245° |
| 2026-05-05 16:34 | 38.03896 | 134.59462 | 38115 ft | 425 kts | 245° |
| 2026-05-05 16:35 | 38.01396 | 134.52667 | 38115 ft | 425 kts | 245° |
| 2026-05-05 16:35 | 37.98896 | 134.45888 | 38113 ft | 425 kts | 245° |
| 2026-05-05 16:36 | 37.96388 | 134.39103 | 38116 ft | 425 kts | 245° |
| 2026-05-05 16:36 | 37.93879 | 134.32331 | 38114 ft | 425 kts | 245° |
| 2026-05-05 16:37 | 37.91366 | 134.25562 | 38113 ft | 425 kts | 245° |
| 2026-05-05 16:37 | 37.88845 | 134.18788 | 38106 ft | 425 kts | 245° |
| 2026-05-05 16:38 | 37.86321 | 134.12020 | 38107 ft | 426 kts | 245° |
| 2026-05-05 16:38 | 37.83789 | 134.05245 | 38127 ft | 425 kts | 245° |
| 2026-05-05 16:39 | 37.81257 | 133.98485 | 38108 ft | 425 kts | 245° |
| 2026-05-05 16:39 | 37.78717 | 133.91720 | 38102 ft | 426 kts | 245° |
| 2026-05-05 16:40 | 37.76176 | 133.84969 | 38106 ft | 426 kts | 245° |
| 2026-05-05 16:40 | 37.73649 | 133.78262 | 38110 ft | 425 kts | 245° |
| 2026-05-05 16:41 | 37.71792 | 133.71131 | 38113 ft | 426 kts | 258° |
| 2026-05-05 16:41 | 37.71083 | 133.63676 | 38110 ft | 430 kts | 263° |
| 2026-05-05 16:42 | 37.70583 | 133.56192 | 38113 ft | 431 kts | 263° |
| 2026-05-05 16:42 | 37.70091 | 133.48600 | 38115 ft | 431 kts | 263° |
| 2026-05-05 16:43 | 37.69577 | 133.41069 | 38095 ft | 431 kts | 263° |
| 2026-05-05 16:43 | 37.69045 | 133.33522 | 38100 ft | 432 kts | 263° |
| 2026-05-05 16:44 | 37.68509 | 133.26025 | 38113 ft | 432 kts | 263° |
| 2026-05-05 16:44 | 37.67961 | 133.18427 | 38108 ft | 433 kts | 263° |
| 2026-05-05 16:45 | 37.67413 | 133.10898 | 38097 ft | 434 kts | 263° |
| 2026-05-05 16:45 | 37.66854 | 133.03259 | 38089 ft | 434 kts | 263° |
| 2026-05-05 16:46 | 37.66297 | 132.95674 | 38097 ft | 434 kts | 263° |
| 2026-05-05 16:46 | 37.65734 | 132.88136 | 38090 ft | 434 kts | 263° |
| 2026-05-05 16:47 | 37.65161 | 132.80556 | 38097 ft | 434 kts | 263° |
| 2026-05-05 16:47 | 37.64583 | 132.72962 | 38094 ft | 435 kts | 263° |
| 2026-05-05 16:48 | 37.64179 | 132.65334 | 38082 ft | 438 kts | 267° |
| 2026-05-05 16:48 | 37.64143 | 132.57652 | 38084 ft | 438 kts | 268° |
| 2026-05-05 16:49 | 37.64158 | 132.49957 | 38079 ft | 438 kts | 268° |
| 2026-05-05 16:49 | 37.64172 | 132.42269 | 38078 ft | 438 kts | 268° |
| 2026-05-05 16:50 | 37.64175 | 132.34587 | 38078 ft | 438 kts | 268° |
| 2026-05-05 16:50 | 37.64169 | 132.26876 | 38078 ft | 440 kts | 268° |
| 2026-05-05 16:51 | 37.64158 | 132.19145 | 38071 ft | 441 kts | 268° |
| 2026-05-05 16:51 | 37.64143 | 132.11405 | 38072 ft | 441 kts | 268° |
| 2026-05-05 16:52 | 37.64122 | 132.03652 | 38069 ft | 441 kts | 268° |
| 2026-05-05 16:52 | 37.64096 | 131.95912 | 38069 ft | 441 kts | 268° |
| 2026-05-05 16:53 | 37.64065 | 131.88165 | 38065 ft | 443 kts | 268° |
| 2026-05-05 16:53 | 37.64029 | 131.80385 | 38064 ft | 444 kts | 268° |
| 2026-05-05 16:54 | 37.63988 | 131.72590 | 38059 ft | 444 kts | 268° |
| 2026-05-05 16:54 | 37.63536 | 131.64841 | 38061 ft | 443 kts | 258° |
| 2026-05-05 16:55 | 37.61520 | 131.57543 | 38060 ft | 443 kts | 243° |
| 2026-05-05 16:55 | 37.57844 | 131.51304 | 38060 ft | 447 kts | 226° |
| 2026-05-05 16:56 | 37.53117 | 131.46177 | 38059 ft | 450 kts | 222° |
| 2026-05-05 16:56 | 37.48225 | 131.41246 | 38061 ft | 450 kts | 221° |
| 2026-05-05 16:57 | 37.43340 | 131.36322 | 38057 ft | 450 kts | 222° |
| 2026-05-05 16:57 | 37.38472 | 131.31373 | 38062 ft | 450 kts | 222° |
| 2026-05-05 16:58 | 37.33602 | 131.26407 | 38066 ft | 450 kts | 222° |
| 2026-05-05 16:58 | 37.28738 | 131.21453 | 38066 ft | 451 kts | 222° |
| 2026-05-05 16:59 | 37.23857 | 131.16491 | 38068 ft | 451 kts | 222° |
| 2026-05-05 16:59 | 37.18978 | 131.11543 | 38081 ft | 451 kts | 222° |
| 2026-05-05 17:00 | 37.14111 | 131.06615 | 38058 ft | 449 kts | 222° |
| 2026-05-05 17:00 | 37.09251 | 131.01703 | 38075 ft | 448 kts | 222° |
| 2026-05-05 17:01 | 37.04399 | 130.96806 | 38065 ft | 448 kts | 222° |
| 2026-05-05 17:01 | 36.99538 | 130.91908 | 38069 ft | 448 kts | 222° |
| 2026-05-05 17:02 | 36.94704 | 130.87045 | 38078 ft | 450 kts | 222° |
| 2026-05-05 17:02 | 36.89815 | 130.82136 | 38067 ft | 451 kts | 222° |
| 2026-05-05 17:03 | 36.84940 | 130.77251 | 38073 ft | 449 kts | 222° |
| 2026-05-05 17:03 | 36.80065 | 130.72373 | 38073 ft | 449 kts | 222° |
| 2026-05-05 17:04 | 36.75202 | 130.67516 | 38076 ft | 447 kts | 222° |
| 2026-05-05 17:04 | 36.70430 | 130.62563 | 38077 ft | 445 kts | 224° |
| 2026-05-05 17:05 | 36.65733 | 130.57537 | 38061 ft | 445 kts | 224° |
| 2026-05-05 17:05 | 36.61035 | 130.52541 | 38082 ft | 443 kts | 224° |
| 2026-05-05 17:06 | 36.56336 | 130.47585 | 38088 ft | 442 kts | 223° |
| 2026-05-05 17:06 | 36.51625 | 130.42635 | 38082 ft | 445 kts | 223° |
| 2026-05-05 17:07 | 36.46893 | 130.37674 | 38080 ft | 444 kts | 223° |
| 2026-05-05 17:07 | 36.42173 | 130.32734 | 38088 ft | 444 kts | 223° |
| 2026-05-05 17:08 | 36.37454 | 130.27801 | 38075 ft | 443 kts | 223° |
| 2026-05-05 17:08 | 36.32742 | 130.22885 | 38092 ft | 443 kts | 223° |
| 2026-05-05 17:09 | 36.28018 | 130.17964 | 38093 ft | 445 kts | 223° |
| 2026-05-05 17:09 | 36.23277 | 130.13042 | 38099 ft | 443 kts | 223° |
| 2026-05-05 17:10 | 36.18566 | 130.08152 | 38092 ft | 442 kts | 223° |
| 2026-05-05 17:10 | 36.13861 | 130.03275 | 38092 ft | 441 kts | 223° |
| 2026-05-05 17:11 | 36.09137 | 129.98388 | 38095 ft | 443 kts | 223° |
| 2026-05-05 17:11 | 36.04409 | 129.93507 | 38097 ft | 443 kts | 223° |
| 2026-05-05 17:12 | 35.99677 | 129.88630 | 38109 ft | 443 kts | 223° |
| 2026-05-05 17:12 | 35.94949 | 129.83768 | 38097 ft | 440 kts | 223° |
| 2026-05-05 17:13 | 35.90279 | 129.78979 | 38105 ft | 440 kts | 223° |
| 2026-05-05 17:13 | 35.85562 | 129.74137 | 38105 ft | 443 kts | 223° |
| 2026-05-05 17:14 | 35.80790 | 129.69244 | 38108 ft | 443 kts | 223° |
| 2026-05-05 17:14 | 35.76073 | 129.64420 | 38108 ft | 444 kts | 223° |
| 2026-05-05 17:15 | 35.71327 | 129.59577 | 38103 ft | 443 kts | 223° |
| 2026-05-05 17:15 | 35.66583 | 129.54743 | 38115 ft | 444 kts | 223° |
| 2026-05-05 17:16 | 35.61813 | 129.49889 | 38118 ft | 445 kts | 223° |
| 2026-05-05 17:16 | 35.57039 | 129.45040 | 38108 ft | 445 kts | 223° |
| 2026-05-05 17:17 | 35.52280 | 129.40215 | 38121 ft | 442 kts | 223° |
| 2026-05-05 17:17 | 35.47548 | 129.35425 | 38122 ft | 441 kts | 223° |
| 2026-05-05 17:18 | 35.42805 | 129.30628 | 38119 ft | 444 kts | 223° |
| 2026-05-05 17:18 | 35.38035 | 129.25830 | 38132 ft | 442 kts | 223° |
| 2026-05-05 17:19 | 35.33286 | 129.21046 | 38133 ft | 442 kts | 223° |
| 2026-05-05 17:19 | 35.29337 | 129.17072 | 38114 ft | 442 kts | 223° |
| 2026-05-05 17:20 | 35.24591 | 129.12307 | 38129 ft | 440 kts | 223° |
| 2026-05-05 17:20 | 35.19853 | 129.07558 | 38131 ft | 442 kts | 223° |
| 2026-05-05 17:21 | 35.15099 | 129.02765 | 38113 ft | 442 kts | 225° |
| 2026-05-05 17:22 | 35.09507 | 128.94077 | 38137 ft | 433 kts | 240° |
| 2026-05-05 17:22 | 35.06525 | 128.87694 | 38149 ft | 433 kts | 242° |
| 2026-05-05 17:23 | 35.03353 | 128.81398 | 38129 ft | 438 kts | 234° |
| 2026-05-05 17:23 | 34.99486 | 128.75664 | 38137 ft | 437 kts | 232° |
| 2026-05-05 17:24 | 34.95493 | 128.70060 | 38133 ft | 437 kts | 231° |
| 2026-05-05 17:24 | 34.91490 | 128.64477 | 38144 ft | 438 kts | 231° |
| 2026-05-05 17:25 | 34.87473 | 128.58888 | 38138 ft | 438 kts | 231° |
| 2026-05-05 17:25 | 34.83467 | 128.53293 | 38140 ft | 437 kts | 231° |
| 2026-05-05 17:26 | 34.79472 | 128.47717 | 38138 ft | 437 kts | 231° |
| 2026-05-05 17:26 | 34.75475 | 128.42150 | 38138 ft | 437 kts | 231° |
| 2026-05-05 17:27 | 34.71482 | 128.36595 | 38135 ft | 436 kts | 231° |
| 2026-05-05 17:27 | 34.67496 | 128.31058 | 38140 ft | 435 kts | 231° |
| 2026-05-05 17:28 | 34.63502 | 128.25520 | 38127 ft | 435 kts | 231° |
| 2026-05-05 17:28 | 34.59524 | 128.20014 | 38138 ft | 433 kts | 231° |
| 2026-05-05 17:29 | 34.55544 | 128.14514 | 38137 ft | 434 kts | 231° |
| 2026-05-05 17:29 | 34.51552 | 128.09006 | 38139 ft | 435 kts | 231° |
| 2026-05-05 17:30 | 34.47554 | 128.03499 | 38138 ft | 435 kts | 231° |
| 2026-05-05 17:30 | 34.43547 | 127.97988 | 38136 ft | 435 kts | 231° |
| 2026-05-05 17:31 | 34.39566 | 127.92522 | 38135 ft | 437 kts | 231° |
| 2026-05-05 17:31 | 34.35535 | 127.86994 | 38132 ft | 439 kts | 231° |
| 2026-05-05 17:32 | 34.31474 | 127.81436 | 38137 ft | 437 kts | 231° |
| 2026-05-05 17:32 | 34.27471 | 127.75965 | 38135 ft | 437 kts | 231° |
| 2026-05-05 17:33 | 34.23410 | 127.70428 | 38131 ft | 437 kts | 231° |
| 2026-05-05 17:33 | 34.19392 | 127.64953 | 38131 ft | 439 kts | 231° |
| 2026-05-05 17:34 | 34.15342 | 127.59447 | 38135 ft | 439 kts | 231° |
| 2026-05-05 17:34 | 34.11291 | 127.53946 | 38139 ft | 439 kts | 231° |
| 2026-05-05 17:35 | 34.07232 | 127.48444 | 38128 ft | 438 kts | 231° |
| 2026-05-05 17:35 | 34.03181 | 127.42962 | 38133 ft | 439 kts | 231° |
| 2026-05-05 17:36 | 33.99110 | 127.37460 | 38130 ft | 440 kts | 230° |
| 2026-05-05 17:36 | 33.95037 | 127.31969 | 38109 ft | 440 kts | 230° |
| 2026-05-05 17:37 | 33.90970 | 127.26496 | 38124 ft | 438 kts | 230° |
| 2026-05-05 17:37 | 33.86908 | 127.21026 | 38131 ft | 439 kts | 230° |
| 2026-05-05 17:38 | 33.82829 | 127.15541 | 38129 ft | 441 kts | 230° |
| 2026-05-05 17:38 | 33.78732 | 127.10045 | 38124 ft | 440 kts | 230° |
| 2026-05-05 17:39 | 33.74646 | 127.04591 | 38129 ft | 439 kts | 230° |
| 2026-05-05 17:39 | 33.70569 | 126.99141 | 38147 ft | 439 kts | 230° |
| 2026-05-05 17:40 | 33.66473 | 126.93667 | 38099 ft | 442 kts | 230° |
| 2026-05-05 17:40 | 33.62075 | 126.88501 | 38127 ft | 442 kts | 226° |
| 2026-05-05 17:41 | 33.57594 | 126.83514 | 38126 ft | 442 kts | 225° |
| 2026-05-05 17:41 | 33.53069 | 126.78526 | 38121 ft | 442 kts | 225° |
| 2026-05-05 17:42 | 33.48541 | 126.73535 | 38125 ft | 441 kts | 225° |
| 2026-05-05 17:42 | 33.44018 | 126.68547 | 38122 ft | 443 kts | 225° |
| 2026-05-05 17:43 | 33.39481 | 126.63548 | 38126 ft | 444 kts | 225° |
| 2026-05-05 17:43 | 33.34932 | 126.58549 | 38108 ft | 443 kts | 225° |
| 2026-05-05 17:44 | 33.30409 | 126.53564 | 38127 ft | 442 kts | 225° |
| 2026-05-05 17:44 | 33.25887 | 126.48587 | 38129 ft | 442 kts | 225° |
| 2026-05-05 17:45 | 33.21348 | 126.43603 | 38119 ft | 444 kts | 225° |
| 2026-05-05 17:45 | 33.16790 | 126.38609 | 38119 ft | 444 kts | 225° |
| 2026-05-05 17:46 | 33.12253 | 126.33646 | 38119 ft | 443 kts | 225° |
| 2026-05-05 17:46 | 33.07708 | 126.28680 | 38118 ft | 443 kts | 225° |
| 2026-05-05 17:47 | 33.03150 | 126.23751 | 38124 ft | 444 kts | 223° |
| 2026-05-05 17:47 | 32.97897 | 126.19753 | 38119 ft | 454 kts | 208° |
| 2026-05-05 17:48 | 32.91990 | 126.16985 | 38117 ft | 458 kts | 204° |
| 2026-05-05 17:48 | 32.85978 | 126.14447 | 38093 ft | 458 kts | 204° |
| 2026-05-05 17:49 | 32.79981 | 126.11933 | 38114 ft | 456 kts | 204° |
| 2026-05-05 17:49 | 32.74005 | 126.09396 | 38118 ft | 455 kts | 205° |
| 2026-05-05 17:50 | 32.68047 | 126.06852 | 38117 ft | 455 kts | 205° |
| 2026-05-05 17:50 | 32.62087 | 126.04309 | 38112 ft | 454 kts | 205° |
| 2026-05-05 17:51 | 32.56150 | 126.01780 | 38112 ft | 453 kts | 205° |
| 2026-05-05 17:51 | 32.50214 | 125.99256 | 38111 ft | 453 kts | 205° |
| 2026-05-05 17:52 | 32.44271 | 125.96741 | 38113 ft | 452 kts | 205° |
| 2026-05-05 17:52 | 32.38396 | 125.94253 | 38109 ft | 451 kts | 205° |
| 2026-05-05 17:53 | 32.32494 | 125.91752 | 38111 ft | 451 kts | 205° |
| 2026-05-05 17:53 | 32.26548 | 125.89239 | 38102 ft | 450 kts | 205° |
| 2026-05-05 17:54 | 32.20703 | 125.86775 | 38110 ft | 448 kts | 205° |
| 2026-05-05 17:54 | 32.14838 | 125.84305 | 38103 ft | 448 kts | 205° |
| 2026-05-05 17:55 | 32.08963 | 125.81833 | 38082 ft | 448 kts | 205° |
| 2026-05-05 17:55 | 32.03111 | 125.79377 | 38108 ft | 445 kts | 205° |
| 2026-05-05 17:56 | 31.97282 | 125.76940 | 38102 ft | 445 kts | 205° |
| 2026-05-05 17:56 | 31.91450 | 125.74485 | 38102 ft | 445 kts | 205° |
| 2026-05-05 17:57 | 31.85603 | 125.72019 | 38101 ft | 446 kts | 205° |
| 2026-05-05 17:57 | 31.79756 | 125.69565 | 38102 ft | 445 kts | 205° |
| 2026-05-05 17:58 | 31.73923 | 125.67123 | 38102 ft | 445 kts | 205° |
| 2026-05-05 17:58 | 31.68087 | 125.64687 | 38092 ft | 445 kts | 205° |
| 2026-05-05 17:59 | 31.62274 | 125.62254 | 38102 ft | 443 kts | 205° |
| 2026-05-05 17:59 | 31.56467 | 125.59823 | 38102 ft | 443 kts | 205° |
| 2026-05-05 18:00 | 31.50668 | 125.57406 | 38104 ft | 443 kts | 205° |
| 2026-05-05 18:00 | 31.44874 | 125.54981 | 38102 ft | 441 kts | 205° |
| 2026-05-05 18:01 | 31.39111 | 125.52561 | 38101 ft | 440 kts | 205° |
| 2026-05-05 18:01 | 31.33347 | 125.50148 | 38112 ft | 440 kts | 205° |
| 2026-05-05 18:02 | 31.27557 | 125.47730 | 38094 ft | 442 kts | 205° |
| 2026-05-05 18:02 | 31.21773 | 125.45321 | 38099 ft | 441 kts | 205° |
| 2026-05-05 18:03 | 31.15992 | 125.42916 | 38097 ft | 440 kts | 205° |
| 2026-05-05 18:03 | 31.10221 | 125.40517 | 38097 ft | 441 kts | 205° |
| 2026-05-05 18:04 | 31.04450 | 125.38121 | 38097 ft | 441 kts | 205° |
| 2026-05-05 18:04 | 30.98668 | 125.35724 | 38097 ft | 441 kts | 205° |
| 2026-05-05 18:05 | 30.93868 | 125.33736 | 38097 ft | 441 kts | 205° |
| 2026-05-05 18:05 | 30.88093 | 125.31348 | 38089 ft | 440 kts | 205° |
| 2026-05-05 18:06 | 30.82320 | 125.28963 | 38098 ft | 439 kts | 205° |
| 2026-05-05 18:06 | 30.76561 | 125.26587 | 38094 ft | 439 kts | 205° |
| 2026-05-05 18:07 | 30.70791 | 125.24210 | 38099 ft | 440 kts | 205° |
| 2026-05-05 18:07 | 30.65018 | 125.21833 | 38098 ft | 441 kts | 205° |
| 2026-05-05 18:08 | 30.59243 | 125.19460 | 38097 ft | 440 kts | 205° |
| 2026-05-05 18:08 | 30.53462 | 125.17088 | 38093 ft | 440 kts | 205° |
| 2026-05-05 18:09 | 30.47689 | 125.14722 | 38073 ft | 440 kts | 205° |
| 2026-05-05 18:09 | 30.41922 | 125.12358 | 38086 ft | 439 kts | 205° |
| 2026-05-05 18:10 | 30.36175 | 125.10007 | 38085 ft | 438 kts | 205° |
| 2026-05-05 18:10 | 30.30428 | 125.07659 | 38092 ft | 438 kts | 205° |
| 2026-05-05 18:11 | 30.24676 | 125.05311 | 38081 ft | 437 kts | 205° |
| 2026-05-05 18:11 | 30.18949 | 125.02978 | 38084 ft | 436 kts | 205° |
| 2026-05-05 18:12 | 30.13219 | 125.00645 | 38084 ft | 436 kts | 205° |
| 2026-05-05 18:12 | 30.07494 | 124.98316 | 38085 ft | 437 kts | 205° |
| 2026-05-05 18:13 | 30.01740 | 124.95979 | 38081 ft | 439 kts | 205° |
| 2026-05-05 18:13 | 29.95982 | 124.93614 | 38078 ft | 438 kts | 205° |
| 2026-05-05 18:14 | 29.90310 | 124.91169 | 38073 ft | 438 kts | 206° |
| 2026-05-05 18:14 | 29.84566 | 124.88687 | 38058 ft | 437 kts | 206° |
| 2026-05-05 18:15 | 29.78885 | 124.86257 | 38073 ft | 435 kts | 206° |
| 2026-05-05 18:15 | 29.73256 | 124.83860 | 38085 ft | 434 kts | 206° |
| 2026-05-05 18:16 | 29.67594 | 124.81454 | 38068 ft | 434 kts | 206° |
| 2026-05-05 18:16 | 29.61926 | 124.79047 | 38067 ft | 433 kts | 206° |
| 2026-05-05 18:17 | 29.56279 | 124.76653 | 38066 ft | 432 kts | 206° |
| 2026-05-05 18:17 | 29.50634 | 124.74262 | 38063 ft | 433 kts | 206° |
| 2026-05-05 18:18 | 29.44980 | 124.71868 | 38059 ft | 435 kts | 205° |
| 2026-05-05 18:18 | 29.39286 | 124.69461 | 38059 ft | 435 kts | 206° |
| 2026-05-05 18:19 | 29.33613 | 124.67069 | 38062 ft | 434 kts | 206° |
| 2026-05-05 18:19 | 29.27937 | 124.64677 | 38059 ft | 434 kts | 206° |
| 2026-05-05 18:20 | 29.22270 | 124.62290 | 38040 ft | 434 kts | 206° |
| 2026-05-05 18:20 | 29.16605 | 124.59909 | 38061 ft | 433 kts | 206° |
| 2026-05-05 18:21 | 29.10962 | 124.57538 | 38058 ft | 432 kts | 206° |
| 2026-05-05 18:21 | 29.05318 | 124.55169 | 38051 ft | 432 kts | 206° |
| 2026-05-05 18:22 | 28.99658 | 124.52797 | 38056 ft | 432 kts | 206° |
| 2026-05-05 18:22 | 28.94237 | 124.49986 | 38058 ft | 425 kts | 216° |
| 2026-05-05 18:23 | 28.89328 | 124.46253 | 38061 ft | 424 kts | 218° |
| 2026-05-05 18:23 | 28.84481 | 124.42343 | 38057 ft | 429 kts | 219° |
| 2026-05-05 18:24 | 28.79613 | 124.38400 | 38049 ft | 429 kts | 219° |
| 2026-05-05 18:24 | 28.74755 | 124.34491 | 38053 ft | 427 kts | 218° |
| 2026-05-05 18:25 | 28.69890 | 124.30595 | 38053 ft | 427 kts | 218° |
| 2026-05-05 18:25 | 28.65032 | 124.26709 | 38051 ft | 427 kts | 218° |
| 2026-05-05 18:26 | 28.60203 | 124.22852 | 38045 ft | 426 kts | 218° |
| 2026-05-05 18:26 | 28.55354 | 124.18982 | 38051 ft | 427 kts | 218° |
| 2026-05-05 18:27 | 28.50483 | 124.15098 | 38050 ft | 429 kts | 218° |
| 2026-05-05 18:27 | 28.45592 | 124.11205 | 38048 ft | 429 kts | 218° |
| 2026-05-05 18:28 | 28.38265 | 124.05380 | 38044 ft | 428 kts | 218° |
| 2026-05-05 18:28 | 28.33380 | 124.01502 | 38045 ft | 428 kts | 218° |
| 2026-05-05 18:29 | 28.28512 | 123.97626 | 38043 ft | 428 kts | 219° |
| 2026-05-05 18:29 | 28.23689 | 123.93684 | 38046 ft | 429 kts | 219° |
| 2026-05-05 18:30 | 28.18834 | 123.89705 | 38036 ft | 431 kts | 219° |
| 2026-05-05 18:30 | 28.13973 | 123.85744 | 38039 ft | 430 kts | 219° |
| 2026-05-05 18:31 | 28.09110 | 123.81796 | 38038 ft | 430 kts | 219° |
| 2026-05-05 18:31 | 28.04238 | 123.77848 | 38038 ft | 430 kts | 219° |
| 2026-05-05 18:32 | 27.99374 | 123.73909 | 38023 ft | 430 kts | 219° |
| 2026-05-05 18:32 | 27.94518 | 123.69982 | 38027 ft | 428 kts | 219° |
| 2026-05-05 18:33 | 27.89670 | 123.66064 | 38035 ft | 430 kts | 219° |
| 2026-05-05 18:33 | 27.84805 | 123.62092 | 38036 ft | 432 kts | 219° |
| 2026-05-05 18:34 | 27.79937 | 123.58123 | 38037 ft | 432 kts | 219° |
| 2026-05-05 18:34 | 27.75069 | 123.54169 | 38032 ft | 431 kts | 219° |
| 2026-05-05 18:35 | 27.70196 | 123.50217 | 38031 ft | 431 kts | 219° |
| 2026-05-05 18:35 | 27.65331 | 123.46277 | 38031 ft | 431 kts | 219° |
| 2026-05-05 18:36 | 27.60457 | 123.42334 | 37978 ft | 431 kts | 219° |
| 2026-05-05 18:36 | 27.55601 | 123.38409 | 38026 ft | 429 kts | 219° |
| 2026-05-05 18:37 | 27.50758 | 123.34500 | 38029 ft | 428 kts | 219° |
| 2026-05-05 18:37 | 27.45910 | 123.30590 | 38030 ft | 428 kts | 219° |
| 2026-05-05 18:38 | 27.41067 | 123.26689 | 38022 ft | 428 kts | 219° |
| 2026-05-05 18:38 | 27.36217 | 123.22786 | 38023 ft | 428 kts | 219° |
| 2026-05-05 18:39 | 27.31378 | 123.18897 | 38018 ft | 428 kts | 219° |
| 2026-05-05 18:39 | 27.26568 | 123.15035 | 38031 ft | 428 kts | 219° |
| 2026-05-05 18:40 | 27.21703 | 123.11131 | 38015 ft | 432 kts | 219° |
| 2026-05-05 18:40 | 27.16810 | 123.07211 | 38008 ft | 432 kts | 219° |
| 2026-05-05 18:41 | 27.11915 | 123.03297 | 38017 ft | 431 kts | 219° |
| 2026-05-05 18:41 | 27.07029 | 122.99394 | 38012 ft | 431 kts | 219° |
| 2026-05-05 18:42 | 27.02136 | 122.95501 | 38009 ft | 431 kts | 219° |
| 2026-05-05 18:42 | 26.97246 | 122.91609 | 38009 ft | 431 kts | 219° |
| 2026-05-05 18:43 | 26.92346 | 122.87714 | 38019 ft | 432 kts | 220° |
| 2026-05-05 18:43 | 26.87427 | 122.83807 | 38007 ft | 435 kts | 220° |
| 2026-05-05 18:44 | 26.82488 | 122.79891 | 38009 ft | 435 kts | 219° |
| 2026-05-05 18:44 | 26.77537 | 122.75971 | 37978 ft | 435 kts | 220° |
| 2026-05-05 18:45 | 26.72602 | 122.72070 | 38004 ft | 434 kts | 220° |
| 2026-05-05 18:45 | 26.67676 | 122.68179 | 38006 ft | 433 kts | 219° |
| 2026-05-05 18:46 | 26.62744 | 122.64291 | 38014 ft | 434 kts | 220° |
| 2026-05-05 18:46 | 26.57819 | 122.60398 | 38007 ft | 434 kts | 220° |
| 2026-05-05 18:47 | 26.52867 | 122.56490 | 38000 ft | 436 kts | 220° |
| 2026-05-05 18:47 | 26.47922 | 122.52598 | 37997 ft | 435 kts | 220° |
| 2026-05-05 18:48 | 26.42974 | 122.48707 | 37997 ft | 435 kts | 220° |
| 2026-05-05 18:48 | 26.38033 | 122.44825 | 37998 ft | 435 kts | 220° |
| 2026-05-05 18:49 | 26.33092 | 122.40948 | 37959 ft | 434 kts | 220° |
| 2026-05-05 18:49 | 26.28987 | 122.37729 | 37991 ft | 434 kts | 220° |
| 2026-05-05 18:50 | 26.24044 | 122.33858 | 38000 ft | 434 kts | 220° |
| 2026-05-05 18:50 | 26.19082 | 122.29973 | 37988 ft | 438 kts | 220° |
| 2026-05-05 18:51 | 26.14087 | 122.26069 | 37981 ft | 439 kts | 220° |
| 2026-05-05 18:51 | 26.09065 | 122.22194 | 37982 ft | 439 kts | 219° |
| 2026-05-05 18:52 | 26.06562 | 122.20283 | 37572 ft | 435 kts | 219° |
| 2026-05-05 18:52 | 26.04063 | 122.18376 | 36776 ft | 437 kts | 219° |
| 2026-05-05 18:52 | 26.01553 | 122.16459 | 35975 ft | 439 kts | 219° |
| 2026-05-05 18:52 | 25.99030 | 122.14530 | 35208 ft | 442 kts | 219° |
| 2026-05-05 18:53 | 25.96489 | 122.12588 | 34474 ft | 443 kts | 219° |
| 2026-05-05 18:53 | 25.93951 | 122.10650 | 33784 ft | 443 kts | 219° |
| 2026-05-05 18:53 | 25.91422 | 122.08720 | 33175 ft | 439 kts | 219° |
| 2026-05-05 18:53 | 25.88918 | 122.06811 | 32647 ft | 434 kts | 219° |
| 2026-05-05 18:54 | 25.86441 | 122.04926 | 32139 ft | 430 kts | 219° |
| 2026-05-05 18:54 | 25.83982 | 122.03053 | 31648 ft | 425 kts | 217° |
| 2026-05-05 18:54 | 25.81563 | 122.01210 | 31153 ft | 420 kts | 219° |
| 2026-05-05 18:54 | 25.79166 | 121.99384 | 30673 ft | 416 kts | 219° |
| 2026-05-05 18:55 | 25.76789 | 121.97573 | 30187 ft | 413 kts | 219° |
| 2026-05-05 18:55 | 25.74433 | 121.95780 | 29676 ft | 409 kts | 219° |
| 2026-05-05 18:55 | 25.72094 | 121.94002 | 29178 ft | 404 kts | 219° |
| 2026-05-05 18:55 | 25.69793 | 121.92245 | 28695 ft | 399 kts | 219° |
| 2026-05-05 18:56 | 25.67531 | 121.90495 | 28219 ft | 394 kts | 219° |
| 2026-05-05 18:56 | 25.65365 | 121.88679 | 27777 ft | 386 kts | 226° |
| 2026-05-05 18:56 | 25.63599 | 121.86476 | 27320 ft | 377 kts | 238° |
| 2026-05-05 18:56 | 25.62247 | 121.84026 | 26883 ft | 372 kts | 242° |
| 2026-05-05 18:57 | 25.60984 | 121.81544 | 26441 ft | 368 kts | 242° |
| 2026-05-05 18:57 | 25.59752 | 121.79112 | 26024 ft | 365 kts | 242° |
| 2026-05-05 18:57 | 25.58512 | 121.76674 | 25575 ft | 362 kts | 242° |
| 2026-05-05 18:57 | 25.57277 | 121.74258 | 25137 ft | 360 kts | 241° |
| 2026-05-05 18:58 | 25.56048 | 121.71859 | 24719 ft | 357 kts | 241° |
| 2026-05-05 18:58 | 25.54825 | 121.69476 | 24275 ft | 355 kts | 241° |
| 2026-05-05 18:58 | 25.53609 | 121.67109 | 23842 ft | 353 kts | 241° |
| 2026-05-05 18:58 | 25.52395 | 121.64747 | 23359 ft | 351 kts | 241° |
| 2026-05-05 18:59 | 25.51190 | 121.62404 | 23032 ft | 350 kts | 241° |
| 2026-05-05 18:59 | 25.49980 | 121.60055 | 22969 ft | 352 kts | 241° |
| 2026-05-05 18:59 | 25.48712 | 121.57732 | 22967 ft | 354 kts | 237° |
| 2026-05-05 18:59 | 25.47186 | 121.55591 | 22971 ft | 355 kts | 232° |
| 2026-05-05 19:00 | 25.45569 | 121.53515 | 22966 ft | 355 kts | 232° |
| 2026-05-05 19:00 | 25.43951 | 121.51451 | 22977 ft | 355 kts | 232° |
| 2026-05-05 19:00 | 25.42336 | 121.49390 | 22973 ft | 355 kts | 232° |
| 2026-05-05 19:00 | 25.40724 | 121.47330 | 22975 ft | 354 kts | 232° |
| 2026-05-05 19:01 | 25.39114 | 121.45277 | 22846 ft | 347 kts | 231° |
| 2026-05-05 19:01 | 25.37553 | 121.43290 | 22015 ft | 341 kts | 231° |
| 2026-05-05 19:01 | 25.35992 | 121.41291 | 20721 ft | 348 kts | 231° |
| 2026-05-05 19:01 | 25.34399 | 121.39252 | 19544 ft | 352 kts | 231° |
| 2026-05-05 19:02 | 25.32791 | 121.37198 | 18513 ft | 352 kts | 230° |
| 2026-05-05 19:02 | 25.31191 | 121.35157 | 17437 ft | 350 kts | 230° |
| 2026-05-05 19:02 | 25.29600 | 121.33130 | 16384 ft | 348 kts | 230° |
| 2026-05-05 19:02 | 25.28051 | 121.31157 | 15879 ft | 332 kts | 230° |
| 2026-05-05 19:03 | 25.26558 | 121.29255 | 15455 ft | 324 kts | 230° |
| 2026-05-05 19:03 | 25.25088 | 121.27382 | 15032 ft | 322 kts | 230° |
| 2026-05-05 19:03 | 25.23622 | 121.25513 | 14605 ft | 321 kts | 230° |
| 2026-05-05 19:03 | 25.22167 | 121.23663 | 14176 ft | 319 kts | 231° |
| 2026-05-05 19:04 | 25.20718 | 121.21820 | 13760 ft | 317 kts | 231° |
| 2026-05-05 19:04 | 25.19282 | 121.19993 | 13313 ft | 313 kts | 231° |
| 2026-05-05 19:04 | 25.17858 | 121.18184 | 12883 ft | 310 kts | 231° |
| 2026-05-05 19:04 | 25.16450 | 121.16393 | 12454 ft | 308 kts | 232° |
| 2026-05-05 19:05 | 25.15050 | 121.14616 | 12074 ft | 305 kts | 232° |
| 2026-05-05 19:05 | 25.13667 | 121.12859 | 11673 ft | 302 kts | 232° |
| 2026-05-05 19:05 | 25.12292 | 121.11114 | 11290 ft | 300 kts | 232° |
| 2026-05-05 19:05 | 25.10928 | 121.09383 | 10898 ft | 298 kts | 232° |
| 2026-05-05 19:06 | 25.09590 | 121.07684 | 10687 ft | 288 kts | 232° |
| 2026-05-05 19:06 | 25.08308 | 121.06055 | 10559 ft | 275 kts | 231° |
| 2026-05-05 19:06 | 25.07077 | 121.04492 | 10412 ft | 265 kts | 231° |
| 2026-05-05 19:06 | 25.05885 | 121.02980 | 10230 ft | 259 kts | 231° |
| 2026-05-05 19:07 | 25.04705 | 121.01481 | 9924 ft | 258 kts | 231° |
| 2026-05-05 19:07 | 25.03515 | 120.99968 | 9587 ft | 267 kts | 231° |
| 2026-05-05 19:07 | 25.02296 | 120.98425 | 9305 ft | 272 kts | 231° |
| 2026-05-05 19:07 | 25.01053 | 120.96857 | 8970 ft | 272 kts | 231° |
| 2026-05-05 19:08 | 24.99816 | 120.95286 | 8572 ft | 270 kts | 232° |
| 2026-05-05 19:08 | 24.98591 | 120.93733 | 8212 ft | 267 kts | 232° |
| 2026-05-05 19:08 | 24.97376 | 120.92191 | 7859 ft | 266 kts | 231° |
| 2026-05-05 19:08 | 24.96159 | 120.90655 | 7536 ft | 266 kts | 231° |
| 2026-05-05 19:09 | 24.94939 | 120.89111 | 7191 ft | 266 kts | 231° |
| 2026-05-05 19:09 | 24.93561 | 120.87743 | 6839 ft | 270 kts | 214° |
| 2026-05-05 19:09 | 24.91751 | 120.87090 | 6501 ft | 276 kts | 186° |
| 2026-05-05 19:09 | 24.89886 | 120.87463 | 6164 ft | 280 kts | 157° |
| 2026-05-05 19:10 | 24.88390 | 120.88776 | 5957 ft | 275 kts | 129° |
| 2026-05-05 19:10 | 24.87620 | 120.90658 | 5761 ft | 269 kts | 101° |
| 2026-05-05 19:10 | 24.87707 | 120.92665 | 5563 ft | 260 kts | 73° |
| 2026-05-05 19:10 | 24.88546 | 120.94358 | 5389 ft | 248 kts | 46° |
| 2026-05-05 19:11 | 24.89788 | 120.95611 | 5208 ft | 239 kts | 41° |
| 2026-05-05 19:11 | 24.90792 | 120.97032 | 5014 ft | 235 kts | 63° |
| 2026-05-05 19:11 | 24.91209 | 120.98763 | 4863 ft | 236 kts | 88° |
| 2026-05-05 19:11 | 24.91187 | 121.00548 | 4721 ft | 227 kts | 95° |
| 2026-05-05 19:12 | 24.91153 | 121.02232 | 4592 ft | 216 kts | 83° |
| 2026-05-05 19:12 | 24.91620 | 121.03770 | 4417 ft | 212 kts | 61° |
| 2026-05-05 19:12 | 24.92477 | 121.05082 | 4154 ft | 210 kts | 46° |
| 2026-05-05 19:12 | 24.93439 | 121.06288 | 3841 ft | 209 kts | 49° |
| 2026-05-05 19:13 | 24.94374 | 121.07514 | 3543 ft | 208 kts | 49° |
| 2026-05-05 19:13 | 24.95315 | 121.08712 | 3261 ft | 206 kts | 48° |
| 2026-05-05 19:13 | 24.96246 | 121.09889 | 2992 ft | 203 kts | 49° |
| 2026-05-05 19:13 | 24.97167 | 121.11058 | 2733 ft | 201 kts | 49° |
| 2026-05-05 19:14 | 24.98058 | 121.12189 | 2465 ft | 190 kts | 49° |
| 2026-05-05 19:14 | 24.98900 | 121.13256 | 2224 ft | 179 kts | 49° |
| 2026-05-05 19:14 | 24.99700 | 121.14270 | 1980 ft | 171 kts | 49° |
| 2026-05-05 19:14 | 25.00463 | 121.15236 | 1757 ft | 163 kts | 49° |
| 2026-05-05 19:15 | 25.01194 | 121.16162 | 1558 ft | 159 kts | 49° |
| 2026-05-05 19:15 | 25.01916 | 121.17076 | 1344 ft | 158 kts | 49° |
| 2026-05-05 19:15 | 25.02636 | 121.17986 | 1142 ft | 157 kts | 49° |
| 2026-05-05 19:15 | 25.03350 | 121.18891 | 936 ft | 156 kts | 49° |
| 2026-05-05 19:16 | 25.04059 | 121.19783 | 743 ft | 152 kts | 49° |
| 2026-05-05 19:16 | 25.04755 | 121.20661 | 551 ft | 152 kts | 48° |
| 2026-05-05 19:16 | 25.05439 | 121.21527 | 359 ft | 148 kts | 49° |
| 2026-05-05 19:16 | 25.06112 | 121.22390 | 155 ft | 148 kts | 49° |
| 2026-05-05 19:17 | 25.06760 | 121.23215 | 104 ft | 137 kts | 47° |
| 2026-05-05 19:17 | 25.07302 | 121.23902 | 101 ft | 77 kts | 49° |
| 2026-05-05 19:17 | 25.07508 | 121.24139 | 101 ft | 30 kts | 34° |
| 2026-05-05 19:17 | 25.07676 | 121.24221 | 106 ft | 24 kts | 19° |
| 2026-05-05 19:18 | 25.07817 | 121.24275 | 105 ft | 18 kts | 15° |
| 2026-05-05 19:18 | 25.07922 | 121.24232 | 105 ft | 16 kts | 319° |
| 2026-05-05 19:18 | 25.07983 | 121.24134 | 105 ft | 15 kts | 264° |
| 2026-05-05 19:18 | 25.07918 | 121.24041 | 105 ft | 16 kts | 229° |
| 2026-05-05 19:19 | 25.07860 | 121.23964 | 104 ft | 10 kts | 238° |
| 2026-05-05 19:19 | 25.07876 | 121.23896 | 105 ft | 10 kts | 311° |
| 2026-05-05 19:19 | 25.07921 | 121.23853 | 105 ft | 5 kts | 319° |
| 2026-05-05 19:19 | 25.07931 | 121.23843 | 105 ft | 0 kts | 319° |